<?xml version="1.0" encoding="UTF-8" standalone="no" ?>
<gpx xmlns="http://www.topografix.com/GPX/1/1" xmlns:xsi="http://www.w3.org/2001/XMLSchema-instance" xsi:schemaLocation="http://www.topografix.com/GPX/1/1 http://www.topografix.com/GPX/1/1/gpx.xsd" version="1.1" creator="VisuGPX - https://www.visugpx.com">
  <metadata>
    <name>Mont-Dore Le Capucin 29 sept. 2019 </name>
  </metadata>
  <trk>
    <name><![CDATA[Mont-Dore Marche 29 sept. 2019 à 08:39]]></name>
    <trkseg>
      <trkpt lat="45.57127" lon="2.81009">
        <ele>996.75450329832</ele>
        <time>2019-09-29T06:39:37Z</time>
      </trkpt>
      <trkpt lat="45.57141" lon="2.80976">
        <ele>1017.9458892041</ele>
        <time>2019-09-29T06:39:47Z</time>
      </trkpt>
      <trkpt lat="45.57183" lon="2.8094">
        <ele>1059.8816695333</ele>
        <time>2019-09-29T06:39:56Z</time>
      </trkpt>
      <trkpt lat="45.57186" lon="2.80942">
        <ele>1063.0038153881</ele>
        <time>2019-09-29T06:40:05Z</time>
      </trkpt>
      <trkpt lat="45.57187" lon="2.80942">
        <ele>1065.9824817484</ele>
        <time>2019-09-29T06:40:49Z</time>
      </trkpt>
      <trkpt lat="45.57185" lon="2.8093">
        <ele>1065.7354667946</ele>
        <time>2019-09-29T06:40:59Z</time>
      </trkpt>
      <trkpt lat="45.57177" lon="2.80914">
        <ele>1065.7808854313</ele>
        <time>2019-09-29T06:41:09Z</time>
      </trkpt>
      <trkpt lat="45.57175" lon="2.80902">
        <ele>1065.9064432861</ele>
        <time>2019-09-29T06:41:18Z</time>
      </trkpt>
      <trkpt lat="45.57173" lon="2.80883">
        <ele>1066.1709116879</ele>
        <time>2019-09-29T06:41:28Z</time>
      </trkpt>
      <trkpt lat="45.57172" lon="2.80874">
        <ele>1066.3969359249</ele>
        <time>2019-09-29T06:41:37Z</time>
      </trkpt>
      <trkpt lat="45.57172" lon="2.80868">
        <ele>1066.6159362317</ele>
        <time>2019-09-29T06:41:46Z</time>
      </trkpt>
      <trkpt lat="45.57172" lon="2.80862">
        <ele>1066.8691168083</ele>
        <time>2019-09-29T06:41:55Z</time>
      </trkpt>
      <trkpt lat="45.5717" lon="2.80855">
        <ele>1067.0558020488</ele>
        <time>2019-09-29T06:42:04Z</time>
      </trkpt>
      <trkpt lat="45.57166" lon="2.80844">
        <ele>1067.2121717644</ele>
        <time>2019-09-29T06:42:13Z</time>
      </trkpt>
      <trkpt lat="45.57165" lon="2.80832">
        <ele>1067.4642972551</ele>
        <time>2019-09-29T06:42:23Z</time>
      </trkpt>
      <trkpt lat="45.57164" lon="2.80827">
        <ele>1067.7287283369</ele>
        <time>2019-09-29T06:42:33Z</time>
      </trkpt>
      <trkpt lat="45.57163" lon="2.80816">
        <ele>1068.0191731594</ele>
        <time>2019-09-29T06:42:43Z</time>
      </trkpt>
      <trkpt lat="45.57163" lon="2.80811">
        <ele>1068.4431211466</ele>
        <time>2019-09-29T06:42:52Z</time>
      </trkpt>
      <trkpt lat="45.57163" lon="2.808">
        <ele>1069.2407202717</ele>
        <time>2019-09-29T06:43:02Z</time>
      </trkpt>
      <trkpt lat="45.57164" lon="2.80788">
        <ele>1070.0718910965</ele>
        <time>2019-09-29T06:43:11Z</time>
      </trkpt>
      <trkpt lat="45.57164" lon="2.80783">
        <ele>1070.9396568475</ele>
        <time>2019-09-29T06:43:21Z</time>
      </trkpt>
      <trkpt lat="45.57161" lon="2.80772">
        <ele>1071.7404963089</ele>
        <time>2019-09-29T06:43:30Z</time>
      </trkpt>
      <trkpt lat="45.5716" lon="2.80763">
        <ele>1072.6445392415</ele>
        <time>2019-09-29T06:43:40Z</time>
      </trkpt>
      <trkpt lat="45.57158" lon="2.80759">
        <ele>1073.3877529325</ele>
        <time>2019-09-29T06:43:49Z</time>
      </trkpt>
      <trkpt lat="45.57158" lon="2.80756">
        <ele>1074.087226365</ele>
        <time>2019-09-29T06:43:58Z</time>
      </trkpt>
      <trkpt lat="45.57152" lon="2.80748">
        <ele>1074.9476745578</ele>
        <time>2019-09-29T06:44:08Z</time>
      </trkpt>
      <trkpt lat="45.57146" lon="2.80739">
        <ele>1075.7037352675</ele>
        <time>2019-09-29T06:44:17Z</time>
      </trkpt>
      <trkpt lat="45.5714" lon="2.80726">
        <ele>1076.4274882722</ele>
        <time>2019-09-29T06:44:27Z</time>
      </trkpt>
      <trkpt lat="45.57139" lon="2.80718">
        <ele>1076.913320911</ele>
        <time>2019-09-29T06:44:36Z</time>
      </trkpt>
      <trkpt lat="45.5714" lon="2.8071">
        <ele>1077.2676691854</ele>
        <time>2019-09-29T06:44:46Z</time>
      </trkpt>
      <trkpt lat="45.57141" lon="2.80708">
        <ele>1077.5663789431</ele>
        <time>2019-09-29T06:44:55Z</time>
      </trkpt>
      <trkpt lat="45.57142" lon="2.80698">
        <ele>1078.3419632125</ele>
        <time>2019-09-29T06:45:04Z</time>
      </trkpt>
      <trkpt lat="45.57143" lon="2.80692">
        <ele>1079.2887993044</ele>
        <time>2019-09-29T06:45:13Z</time>
      </trkpt>
      <trkpt lat="45.57145" lon="2.80682">
        <ele>1080.3446396317</ele>
        <time>2019-09-29T06:45:22Z</time>
      </trkpt>
      <trkpt lat="45.57146" lon="2.80665">
        <ele>1081.5756173154</ele>
        <time>2019-09-29T06:45:31Z</time>
      </trkpt>
      <trkpt lat="45.57147" lon="2.80656">
        <ele>1082.9712415682</ele>
        <time>2019-09-29T06:45:40Z</time>
      </trkpt>
      <trkpt lat="45.57151" lon="2.80647">
        <ele>1084.3682200524</ele>
        <time>2019-09-29T06:45:49Z</time>
      </trkpt>
      <trkpt lat="45.57151" lon="2.80645">
        <ele>1085.4540535114</ele>
        <time>2019-09-29T06:45:59Z</time>
      </trkpt>
      <trkpt lat="45.5715" lon="2.80646">
        <ele>1085.6002003344</ele>
        <time>2019-09-29T06:46:09Z</time>
      </trkpt>
      <trkpt lat="45.57144" lon="2.80646">
        <ele>1085.727541092</ele>
        <time>2019-09-29T06:46:18Z</time>
      </trkpt>
      <trkpt lat="45.57145" lon="2.80642">
        <ele>1085.5943858794</ele>
        <time>2019-09-29T06:46:28Z</time>
      </trkpt>
      <trkpt lat="45.57145" lon="2.80641">
        <ele>1085.7653025648</ele>
        <time>2019-09-29T06:46:45Z</time>
      </trkpt>
      <trkpt lat="45.57145" lon="2.8064">
        <ele>1087.5703624161</ele>
        <time>2019-09-29T06:47:01Z</time>
      </trkpt>
      <trkpt lat="45.57147" lon="2.80644">
        <ele>1088.8544731083</ele>
        <time>2019-09-29T06:47:11Z</time>
      </trkpt>
      <trkpt lat="45.57147" lon="2.80644">
        <ele>1089.26003807</ele>
        <time>2019-09-29T06:47:20Z</time>
      </trkpt>
      <trkpt lat="45.57146" lon="2.80644">
        <ele>1092.5714741756</ele>
        <time>2019-09-29T06:48:12Z</time>
      </trkpt>
      <trkpt lat="45.57147" lon="2.80645">
        <ele>1093.4238199577</ele>
        <time>2019-09-29T06:48:30Z</time>
      </trkpt>
      <trkpt lat="45.57147" lon="2.80644">
        <ele>1094.7263836009</ele>
        <time>2019-09-29T06:48:53Z</time>
      </trkpt>
      <trkpt lat="45.57149" lon="2.80643">
        <ele>1095.8798778168</ele>
        <time>2019-09-29T06:49:03Z</time>
      </trkpt>
      <trkpt lat="45.57147" lon="2.80637">
        <ele>1097.389716325</ele>
        <time>2019-09-29T06:49:12Z</time>
      </trkpt>
      <trkpt lat="45.57144" lon="2.80626">
        <ele>1098.9938843854</ele>
        <time>2019-09-29T06:49:22Z</time>
      </trkpt>
      <trkpt lat="45.57145" lon="2.80614">
        <ele>1100.2298347837</ele>
        <time>2019-09-29T06:49:31Z</time>
      </trkpt>
      <trkpt lat="45.57147" lon="2.80605">
        <ele>1101.3035031608</ele>
        <time>2019-09-29T06:49:40Z</time>
      </trkpt>
      <trkpt lat="45.5715" lon="2.80598">
        <ele>1102.1626408625</ele>
        <time>2019-09-29T06:49:49Z</time>
      </trkpt>
      <trkpt lat="45.5715" lon="2.8059">
        <ele>1103.0721609708</ele>
        <time>2019-09-29T06:49:59Z</time>
      </trkpt>
      <trkpt lat="45.57152" lon="2.80581">
        <ele>1103.7345761527</ele>
        <time>2019-09-29T06:50:08Z</time>
      </trkpt>
      <trkpt lat="45.57154" lon="2.80574">
        <ele>1104.2211510896</ele>
        <time>2019-09-29T06:50:17Z</time>
      </trkpt>
      <trkpt lat="45.57161" lon="2.80567">
        <ele>1104.8415449744</ele>
        <time>2019-09-29T06:50:27Z</time>
      </trkpt>
      <trkpt lat="45.57166" lon="2.8056">
        <ele>1105.4681863386</ele>
        <time>2019-09-29T06:50:36Z</time>
      </trkpt>
      <trkpt lat="45.5717" lon="2.80546">
        <ele>1106.0426947927</ele>
        <time>2019-09-29T06:50:45Z</time>
      </trkpt>
      <trkpt lat="45.57179" lon="2.8054">
        <ele>1106.5477368372</ele>
        <time>2019-09-29T06:50:54Z</time>
      </trkpt>
      <trkpt lat="45.57189" lon="2.80534">
        <ele>1106.9921429233</ele>
        <time>2019-09-29T06:51:03Z</time>
      </trkpt>
      <trkpt lat="45.57194" lon="2.80535">
        <ele>1107.2034062187</ele>
        <time>2019-09-29T06:51:12Z</time>
      </trkpt>
      <trkpt lat="45.57198" lon="2.80533">
        <ele>1107.5470789676</ele>
        <time>2019-09-29T06:51:21Z</time>
      </trkpt>
      <trkpt lat="45.57203" lon="2.8053">
        <ele>1107.8920050162</ele>
        <time>2019-09-29T06:51:31Z</time>
      </trkpt>
      <trkpt lat="45.57213" lon="2.80525">
        <ele>1108.2025910714</ele>
        <time>2019-09-29T06:51:41Z</time>
      </trkpt>
      <trkpt lat="45.5722" lon="2.80524">
        <ele>1108.4574005451</ele>
        <time>2019-09-29T06:51:50Z</time>
      </trkpt>
      <trkpt lat="45.57227" lon="2.80521">
        <ele>1108.7838495031</ele>
        <time>2019-09-29T06:51:59Z</time>
      </trkpt>
      <trkpt lat="45.57238" lon="2.80519">
        <ele>1109.1593285646</ele>
        <time>2019-09-29T06:52:08Z</time>
      </trkpt>
      <trkpt lat="45.57241" lon="2.80517">
        <ele>1109.336411181</ele>
        <time>2019-09-29T06:52:18Z</time>
      </trkpt>
      <trkpt lat="45.57243" lon="2.80513">
        <ele>1109.6871416913</ele>
        <time>2019-09-29T06:52:27Z</time>
      </trkpt>
      <trkpt lat="45.57244" lon="2.80513">
        <ele>1109.9033619249</ele>
        <time>2019-09-29T06:52:43Z</time>
      </trkpt>
      <trkpt lat="45.57244" lon="2.80509">
        <ele>1110.7157728352</ele>
        <time>2019-09-29T06:52:52Z</time>
      </trkpt>
      <trkpt lat="45.57246" lon="2.80508">
        <ele>1111.3889649595</ele>
        <time>2019-09-29T06:53:01Z</time>
      </trkpt>
      <trkpt lat="45.57252" lon="2.805">
        <ele>1112.0811406622</ele>
        <time>2019-09-29T06:53:10Z</time>
      </trkpt>
      <trkpt lat="45.57254" lon="2.80491">
        <ele>1112.7453199565</ele>
        <time>2019-09-29T06:53:19Z</time>
      </trkpt>
      <trkpt lat="45.57251" lon="2.80483">
        <ele>1113.3376953044</ele>
        <time>2019-09-29T06:53:28Z</time>
      </trkpt>
      <trkpt lat="45.57248" lon="2.80479">
        <ele>1113.9415241797</ele>
        <time>2019-09-29T06:53:38Z</time>
      </trkpt>
      <trkpt lat="45.57246" lon="2.80477">
        <ele>1114.3988998785</ele>
        <time>2019-09-29T06:53:47Z</time>
      </trkpt>
      <trkpt lat="45.57246" lon="2.80475">
        <ele>1115.1052480176</ele>
        <time>2019-09-29T06:53:59Z</time>
      </trkpt>
      <trkpt lat="45.57233" lon="2.80471">
        <ele>1115.7036727252</ele>
        <time>2019-09-29T06:54:09Z</time>
      </trkpt>
      <trkpt lat="45.57224" lon="2.80471">
        <ele>1116.2644510994</ele>
        <time>2019-09-29T06:54:19Z</time>
      </trkpt>
      <trkpt lat="45.57218" lon="2.80466">
        <ele>1116.8459065492</ele>
        <time>2019-09-29T06:54:28Z</time>
      </trkpt>
      <trkpt lat="45.57208" lon="2.80466">
        <ele>1117.3973169351</ele>
        <time>2019-09-29T06:54:37Z</time>
      </trkpt>
      <trkpt lat="45.57202" lon="2.80473">
        <ele>1117.8966128796</ele>
        <time>2019-09-29T06:54:46Z</time>
      </trkpt>
      <trkpt lat="45.57198" lon="2.8047">
        <ele>1118.3531917644</ele>
        <time>2019-09-29T06:54:56Z</time>
      </trkpt>
      <trkpt lat="45.57192" lon="2.80465">
        <ele>1118.798788482</ele>
        <time>2019-09-29T06:55:05Z</time>
      </trkpt>
      <trkpt lat="45.57188" lon="2.80461">
        <ele>1119.1506249905</ele>
        <time>2019-09-29T06:55:14Z</time>
      </trkpt>
      <trkpt lat="45.57178" lon="2.80458">
        <ele>1119.427191909</ele>
        <time>2019-09-29T06:55:24Z</time>
      </trkpt>
      <trkpt lat="45.57158" lon="2.80442">
        <ele>1119.7112376361</ele>
        <time>2019-09-29T06:55:34Z</time>
      </trkpt>
      <trkpt lat="45.57149" lon="2.8044">
        <ele>1119.9157492766</ele>
        <time>2019-09-29T06:55:43Z</time>
      </trkpt>
      <trkpt lat="45.57135" lon="2.80451">
        <ele>1120.0778769021</ele>
        <time>2019-09-29T06:55:53Z</time>
      </trkpt>
      <trkpt lat="45.57127" lon="2.80456">
        <ele>1120.2495263413</ele>
        <time>2019-09-29T06:56:03Z</time>
      </trkpt>
      <trkpt lat="45.57123" lon="2.80465">
        <ele>1120.4238477554</ele>
        <time>2019-09-29T06:56:12Z</time>
      </trkpt>
      <trkpt lat="45.5712" lon="2.80473">
        <ele>1120.7926033851</ele>
        <time>2019-09-29T06:56:21Z</time>
      </trkpt>
      <trkpt lat="45.5712" lon="2.80485">
        <ele>1121.2454244216</ele>
        <time>2019-09-29T06:56:30Z</time>
      </trkpt>
      <trkpt lat="45.57123" lon="2.80496">
        <ele>1121.8564500982</ele>
        <time>2019-09-29T06:56:39Z</time>
      </trkpt>
      <trkpt lat="45.57118" lon="2.80503">
        <ele>1122.5271216181</ele>
        <time>2019-09-29T06:56:48Z</time>
      </trkpt>
      <trkpt lat="45.57113" lon="2.80508">
        <ele>1122.9388240613</ele>
        <time>2019-09-29T06:56:58Z</time>
      </trkpt>
      <trkpt lat="45.57113" lon="2.80507">
        <ele>1123.4111507784</ele>
        <time>2019-09-29T06:57:07Z</time>
      </trkpt>
      <trkpt lat="45.57111" lon="2.80509">
        <ele>1123.5073262816</ele>
        <time>2019-09-29T06:57:17Z</time>
      </trkpt>
      <trkpt lat="45.57108" lon="2.80507">
        <ele>1124.128930523</ele>
        <time>2019-09-29T06:57:27Z</time>
      </trkpt>
      <trkpt lat="45.57111" lon="2.80508">
        <ele>1124.6037295623</ele>
        <time>2019-09-29T06:57:37Z</time>
      </trkpt>
      <trkpt lat="45.5711" lon="2.80507">
        <ele>1124.7885797095</ele>
        <time>2019-09-29T06:57:50Z</time>
      </trkpt>
      <trkpt lat="45.57109" lon="2.80503">
        <ele>1124.9444951007</ele>
        <time>2019-09-29T06:57:59Z</time>
      </trkpt>
      <trkpt lat="45.57108" lon="2.80502">
        <ele>1126.0222242401</ele>
        <time>2019-09-29T06:58:09Z</time>
      </trkpt>
      <trkpt lat="45.57111" lon="2.80502">
        <ele>1126.9970257847</ele>
        <time>2019-09-29T06:58:18Z</time>
      </trkpt>
      <trkpt lat="45.57113" lon="2.80504">
        <ele>1128.0769954024</ele>
        <time>2019-09-29T06:58:28Z</time>
      </trkpt>
      <trkpt lat="45.57113" lon="2.80504">
        <ele>1130.5106766953</ele>
        <time>2019-09-29T06:58:42Z</time>
      </trkpt>
      <trkpt lat="45.57115" lon="2.80506">
        <ele>1130.9398732291</ele>
        <time>2019-09-29T06:58:51Z</time>
      </trkpt>
      <trkpt lat="45.57114" lon="2.80505">
        <ele>1131.7291682899</ele>
        <time>2019-09-29T06:59:01Z</time>
      </trkpt>
      <trkpt lat="45.57112" lon="2.80506">
        <ele>1132.4423144255</ele>
        <time>2019-09-29T06:59:10Z</time>
      </trkpt>
      <trkpt lat="45.57112" lon="2.80507">
        <ele>1132.7932528311</ele>
        <time>2019-09-29T06:59:22Z</time>
      </trkpt>
      <trkpt lat="45.57113" lon="2.80508">
        <ele>1134.3923967674</ele>
        <time>2019-09-29T06:59:43Z</time>
      </trkpt>
      <trkpt lat="45.57113" lon="2.80509">
        <ele>1135.271124579</ele>
        <time>2019-09-29T06:59:57Z</time>
      </trkpt>
      <trkpt lat="45.57114" lon="2.8051">
        <ele>1136.2287702907</ele>
        <time>2019-09-29T07:00:06Z</time>
      </trkpt>
      <trkpt lat="45.57115" lon="2.80509">
        <ele>1137.6912527461</ele>
        <time>2019-09-29T07:00:23Z</time>
      </trkpt>
      <trkpt lat="45.5711" lon="2.80499">
        <ele>1140.3829475521</ele>
        <time>2019-09-29T07:00:32Z</time>
      </trkpt>
      <trkpt lat="45.57106" lon="2.80485">
        <ele>1142.7760929014</ele>
        <time>2019-09-29T07:00:42Z</time>
      </trkpt>
      <trkpt lat="45.57108" lon="2.80468">
        <ele>1145.0548478317</ele>
        <time>2019-09-29T07:00:52Z</time>
      </trkpt>
      <trkpt lat="45.57109" lon="2.80454">
        <ele>1146.8649767334</ele>
        <time>2019-09-29T07:01:01Z</time>
      </trkpt>
      <trkpt lat="45.57107" lon="2.80441">
        <ele>1148.5409642611</ele>
        <time>2019-09-29T07:01:10Z</time>
      </trkpt>
      <trkpt lat="45.57104" lon="2.80432">
        <ele>1150.0434125545</ele>
        <time>2019-09-29T07:01:19Z</time>
      </trkpt>
      <trkpt lat="45.57106" lon="2.80423">
        <ele>1151.3953132774</ele>
        <time>2019-09-29T07:01:29Z</time>
      </trkpt>
      <trkpt lat="45.57111" lon="2.80408">
        <ele>1152.5697670693</ele>
        <time>2019-09-29T07:01:39Z</time>
      </trkpt>
      <trkpt lat="45.57126" lon="2.80401">
        <ele>1153.8354072134</ele>
        <time>2019-09-29T07:01:49Z</time>
      </trkpt>
      <trkpt lat="45.5713" lon="2.80392">
        <ele>1154.9540839246</ele>
        <time>2019-09-29T07:01:58Z</time>
      </trkpt>
      <trkpt lat="45.5713" lon="2.80388">
        <ele>1155.8484438225</ele>
        <time>2019-09-29T07:02:07Z</time>
      </trkpt>
      <trkpt lat="45.57132" lon="2.80382">
        <ele>1157.0878370591</ele>
        <time>2019-09-29T07:02:16Z</time>
      </trkpt>
      <trkpt lat="45.57142" lon="2.80371">
        <ele>1158.1872101226</ele>
        <time>2019-09-29T07:02:25Z</time>
      </trkpt>
      <trkpt lat="45.57148" lon="2.80364">
        <ele>1159.1507960131</ele>
        <time>2019-09-29T07:02:34Z</time>
      </trkpt>
      <trkpt lat="45.57155" lon="2.80353">
        <ele>1160.1137573922</ele>
        <time>2019-09-29T07:02:43Z</time>
      </trkpt>
      <trkpt lat="45.57146" lon="2.80348">
        <ele>1160.9641615212</ele>
        <time>2019-09-29T07:02:52Z</time>
      </trkpt>
      <trkpt lat="45.57137" lon="2.80358">
        <ele>1161.6141024711</ele>
        <time>2019-09-29T07:03:01Z</time>
      </trkpt>
      <trkpt lat="45.57136" lon="2.80364">
        <ele>1162.2372398903</ele>
        <time>2019-09-29T07:03:10Z</time>
      </trkpt>
      <trkpt lat="45.57127" lon="2.80373">
        <ele>1162.7824426235</ele>
        <time>2019-09-29T07:03:20Z</time>
      </trkpt>
      <trkpt lat="45.57127" lon="2.80372">
        <ele>1163.4500013315</ele>
        <time>2019-09-29T07:03:42Z</time>
      </trkpt>
      <trkpt lat="45.5712" lon="2.80372">
        <ele>1165.1978594243</ele>
        <time>2019-09-29T07:03:51Z</time>
      </trkpt>
      <trkpt lat="45.57113" lon="2.80375">
        <ele>1166.5060587013</ele>
        <time>2019-09-29T07:04:00Z</time>
      </trkpt>
      <trkpt lat="45.57106" lon="2.80383">
        <ele>1167.8112838073</ele>
        <time>2019-09-29T07:04:09Z</time>
      </trkpt>
      <trkpt lat="45.57093" lon="2.80397">
        <ele>1168.9800106053</ele>
        <time>2019-09-29T07:04:19Z</time>
      </trkpt>
      <trkpt lat="45.57091" lon="2.80403">
        <ele>1169.9358935409</ele>
        <time>2019-09-29T07:04:29Z</time>
      </trkpt>
      <trkpt lat="45.57088" lon="2.8041">
        <ele>1170.5177685186</ele>
        <time>2019-09-29T07:04:38Z</time>
      </trkpt>
      <trkpt lat="45.57082" lon="2.80407">
        <ele>1171.1890177297</ele>
        <time>2019-09-29T07:04:48Z</time>
      </trkpt>
      <trkpt lat="45.57081" lon="2.80401">
        <ele>1171.8655432544</ele>
        <time>2019-09-29T07:04:58Z</time>
      </trkpt>
      <trkpt lat="45.57076" lon="2.80398">
        <ele>1172.1841040566</ele>
        <time>2019-09-29T07:05:07Z</time>
      </trkpt>
      <trkpt lat="45.57075" lon="2.804">
        <ele>1173.0805392339</ele>
        <time>2019-09-29T07:05:16Z</time>
      </trkpt>
      <trkpt lat="45.57077" lon="2.80401">
        <ele>1173.2374742013</ele>
        <time>2019-09-29T07:05:25Z</time>
      </trkpt>
      <trkpt lat="45.57077" lon="2.80402">
        <ele>1174.8849542054</ele>
        <time>2019-09-29T07:05:40Z</time>
      </trkpt>
      <trkpt lat="45.57081" lon="2.804">
        <ele>1176.426920696</ele>
        <time>2019-09-29T07:05:49Z</time>
      </trkpt>
      <trkpt lat="45.57079" lon="2.804">
        <ele>1177.3391908234</ele>
        <time>2019-09-29T07:05:58Z</time>
      </trkpt>
      <trkpt lat="45.57079" lon="2.80398">
        <ele>1179.1183499566</ele>
        <time>2019-09-29T07:06:07Z</time>
      </trkpt>
      <trkpt lat="45.57073" lon="2.80393">
        <ele>1180.7812518609</ele>
        <time>2019-09-29T07:06:17Z</time>
      </trkpt>
      <trkpt lat="45.57061" lon="2.80402">
        <ele>1182.1255525055</ele>
        <time>2019-09-29T07:06:27Z</time>
      </trkpt>
      <trkpt lat="45.57053" lon="2.80399">
        <ele>1183.122724627</ele>
        <time>2019-09-29T07:06:36Z</time>
      </trkpt>
      <trkpt lat="45.57044" lon="2.80402">
        <ele>1183.9489093285</ele>
        <time>2019-09-29T07:06:45Z</time>
      </trkpt>
      <trkpt lat="45.57038" lon="2.80398">
        <ele>1184.7566439484</ele>
        <time>2019-09-29T07:06:54Z</time>
      </trkpt>
      <trkpt lat="45.57027" lon="2.80402">
        <ele>1185.5343362394</ele>
        <time>2019-09-29T07:07:04Z</time>
      </trkpt>
      <trkpt lat="45.5702" lon="2.80406">
        <ele>1186.3490001971</ele>
        <time>2019-09-29T07:07:13Z</time>
      </trkpt>
      <trkpt lat="45.57014" lon="2.80404">
        <ele>1186.9400545035</ele>
        <time>2019-09-29T07:07:22Z</time>
      </trkpt>
      <trkpt lat="45.57005" lon="2.80398">
        <ele>1187.6283693954</ele>
        <time>2019-09-29T07:07:31Z</time>
      </trkpt>
      <trkpt lat="45.56991" lon="2.80404">
        <ele>1188.3722519732</ele>
        <time>2019-09-29T07:07:40Z</time>
      </trkpt>
      <trkpt lat="45.5698" lon="2.80407">
        <ele>1188.9238435534</ele>
        <time>2019-09-29T07:07:49Z</time>
      </trkpt>
      <trkpt lat="45.56974" lon="2.80415">
        <ele>1189.3089730742</ele>
        <time>2019-09-29T07:07:59Z</time>
      </trkpt>
      <trkpt lat="45.56972" lon="2.80422">
        <ele>1189.719834894</ele>
        <time>2019-09-29T07:08:08Z</time>
      </trkpt>
      <trkpt lat="45.56968" lon="2.80434">
        <ele>1190.2766310957</ele>
        <time>2019-09-29T07:08:17Z</time>
      </trkpt>
      <trkpt lat="45.56956" lon="2.80446">
        <ele>1190.9691332496</ele>
        <time>2019-09-29T07:08:26Z</time>
      </trkpt>
      <trkpt lat="45.56956" lon="2.80447">
        <ele>1191.4077451281</ele>
        <time>2019-09-29T07:08:36Z</time>
      </trkpt>
      <trkpt lat="45.5695" lon="2.80456">
        <ele>1192.1607998937</ele>
        <time>2019-09-29T07:08:46Z</time>
      </trkpt>
      <trkpt lat="45.56942" lon="2.80469">
        <ele>1192.8415201804</ele>
        <time>2019-09-29T07:08:55Z</time>
      </trkpt>
      <trkpt lat="45.56935" lon="2.80475">
        <ele>1193.2503756154</ele>
        <time>2019-09-29T07:09:04Z</time>
      </trkpt>
      <trkpt lat="45.56931" lon="2.80486">
        <ele>1193.5938484743</ele>
        <time>2019-09-29T07:09:13Z</time>
      </trkpt>
      <trkpt lat="45.56928" lon="2.80491">
        <ele>1193.9106620345</ele>
        <time>2019-09-29T07:09:22Z</time>
      </trkpt>
      <trkpt lat="45.56926" lon="2.80494">
        <ele>1194.2208007911</ele>
        <time>2019-09-29T07:09:32Z</time>
      </trkpt>
      <trkpt lat="45.5692" lon="2.80494">
        <ele>1195.186906293</ele>
        <time>2019-09-29T07:09:42Z</time>
      </trkpt>
      <trkpt lat="45.56911" lon="2.80502">
        <ele>1196.0658650786</ele>
        <time>2019-09-29T07:09:51Z</time>
      </trkpt>
      <trkpt lat="45.56906" lon="2.80505">
        <ele>1196.8492320548</ele>
        <time>2019-09-29T07:10:00Z</time>
      </trkpt>
      <trkpt lat="45.56898" lon="2.80504">
        <ele>1197.761248154</ele>
        <time>2019-09-29T07:10:09Z</time>
      </trkpt>
      <trkpt lat="45.56892" lon="2.80508">
        <ele>1198.6186849749</ele>
        <time>2019-09-29T07:10:18Z</time>
      </trkpt>
      <trkpt lat="45.56893" lon="2.80508">
        <ele>1198.9387400126</ele>
        <time>2019-09-29T07:10:28Z</time>
      </trkpt>
      <trkpt lat="45.56893" lon="2.80506">
        <ele>1199.7454071872</ele>
        <time>2019-09-29T07:10:38Z</time>
      </trkpt>
      <trkpt lat="45.56895" lon="2.80502">
        <ele>1200.931904156</ele>
        <time>2019-09-29T07:10:47Z</time>
      </trkpt>
      <trkpt lat="45.56892" lon="2.80498">
        <ele>1201.9985225281</ele>
        <time>2019-09-29T07:10:57Z</time>
      </trkpt>
      <trkpt lat="45.56883" lon="2.80494">
        <ele>1202.8941606662</ele>
        <time>2019-09-29T07:11:06Z</time>
      </trkpt>
      <trkpt lat="45.56875" lon="2.80486">
        <ele>1203.9460085873</ele>
        <time>2019-09-29T07:11:16Z</time>
      </trkpt>
      <trkpt lat="45.56864" lon="2.80477">
        <ele>1204.7900238821</ele>
        <time>2019-09-29T07:11:25Z</time>
      </trkpt>
      <trkpt lat="45.5686" lon="2.80468">
        <ele>1205.4826030647</ele>
        <time>2019-09-29T07:11:35Z</time>
      </trkpt>
      <trkpt lat="45.56859" lon="2.80469">
        <ele>1205.5686713387</ele>
        <time>2019-09-29T07:11:50Z</time>
      </trkpt>
      <trkpt lat="45.56858" lon="2.80468">
        <ele>1205.619063606</ele>
        <time>2019-09-29T07:12:00Z</time>
      </trkpt>
      <trkpt lat="45.5685" lon="2.80464">
        <ele>1205.9666459519</ele>
        <time>2019-09-29T07:12:10Z</time>
      </trkpt>
      <trkpt lat="45.56844" lon="2.80465">
        <ele>1206.4794188642</ele>
        <time>2019-09-29T07:12:20Z</time>
      </trkpt>
      <trkpt lat="45.56842" lon="2.80459">
        <ele>1206.8338257977</ele>
        <time>2019-09-29T07:12:29Z</time>
      </trkpt>
      <trkpt lat="45.56843" lon="2.8046">
        <ele>1208.2555381045</ele>
        <time>2019-09-29T07:13:01Z</time>
      </trkpt>
      <trkpt lat="45.56844" lon="2.8046">
        <ele>1208.5340742185</ele>
        <time>2019-09-29T07:13:10Z</time>
      </trkpt>
      <trkpt lat="45.56844" lon="2.80459">
        <ele>1208.9148376731</ele>
        <time>2019-09-29T07:13:24Z</time>
      </trkpt>
      <trkpt lat="45.56845" lon="2.80446">
        <ele>1210.1007777457</ele>
        <time>2019-09-29T07:13:33Z</time>
      </trkpt>
      <trkpt lat="45.56843" lon="2.80433">
        <ele>1211.5512299953</ele>
        <time>2019-09-29T07:13:43Z</time>
      </trkpt>
      <trkpt lat="45.56841" lon="2.80427">
        <ele>1212.4759813955</ele>
        <time>2019-09-29T07:13:53Z</time>
      </trkpt>
      <trkpt lat="45.5684" lon="2.80423">
        <ele>1213.5759119858</ele>
        <time>2019-09-29T07:14:02Z</time>
      </trkpt>
      <trkpt lat="45.56838" lon="2.8042">
        <ele>1214.7997786015</ele>
        <time>2019-09-29T07:14:11Z</time>
      </trkpt>
      <trkpt lat="45.56835" lon="2.8041">
        <ele>1215.8675198788</ele>
        <time>2019-09-29T07:14:20Z</time>
      </trkpt>
      <trkpt lat="45.56831" lon="2.80397">
        <ele>1216.8666802779</ele>
        <time>2019-09-29T07:14:30Z</time>
      </trkpt>
      <trkpt lat="45.5683" lon="2.80394">
        <ele>1217.4108593024</ele>
        <time>2019-09-29T07:14:39Z</time>
      </trkpt>
      <trkpt lat="45.56828" lon="2.80384">
        <ele>1218.0992590993</ele>
        <time>2019-09-29T07:14:48Z</time>
      </trkpt>
      <trkpt lat="45.56825" lon="2.80374">
        <ele>1218.6895651825</ele>
        <time>2019-09-29T07:14:57Z</time>
      </trkpt>
      <trkpt lat="45.56823" lon="2.80363">
        <ele>1219.2735044741</ele>
        <time>2019-09-29T07:15:06Z</time>
      </trkpt>
      <trkpt lat="45.56821" lon="2.80354">
        <ele>1219.9676863685</ele>
        <time>2019-09-29T07:15:16Z</time>
      </trkpt>
      <trkpt lat="45.56819" lon="2.80347">
        <ele>1220.5134671197</ele>
        <time>2019-09-29T07:15:25Z</time>
      </trkpt>
      <trkpt lat="45.56818" lon="2.80339">
        <ele>1221.0173441389</ele>
        <time>2019-09-29T07:15:34Z</time>
      </trkpt>
      <trkpt lat="45.56819" lon="2.80326">
        <ele>1221.518290674</ele>
        <time>2019-09-29T07:15:43Z</time>
      </trkpt>
      <trkpt lat="45.56819" lon="2.80316">
        <ele>1222.0184343735</ele>
        <time>2019-09-29T07:15:52Z</time>
      </trkpt>
      <trkpt lat="45.56822" lon="2.80304">
        <ele>1222.5782775858</ele>
        <time>2019-09-29T07:16:02Z</time>
      </trkpt>
      <trkpt lat="45.56828" lon="2.80288">
        <ele>1223.0449016137</ele>
        <time>2019-09-29T07:16:11Z</time>
      </trkpt>
      <trkpt lat="45.56827" lon="2.80275">
        <ele>1223.5249896692</ele>
        <time>2019-09-29T07:16:21Z</time>
      </trkpt>
      <trkpt lat="45.56824" lon="2.80268">
        <ele>1223.8550795261</ele>
        <time>2019-09-29T07:16:31Z</time>
      </trkpt>
      <trkpt lat="45.56823" lon="2.80267">
        <ele>1223.9305789201</ele>
        <time>2019-09-29T07:16:43Z</time>
      </trkpt>
      <trkpt lat="45.56823" lon="2.80266">
        <ele>1224.137518957</ele>
        <time>2019-09-29T07:16:57Z</time>
      </trkpt>
      <trkpt lat="45.56822" lon="2.80265">
        <ele>1224.37107365</ele>
        <time>2019-09-29T07:17:11Z</time>
      </trkpt>
      <trkpt lat="45.56822" lon="2.80262">
        <ele>1225.3071847354</ele>
        <time>2019-09-29T07:17:21Z</time>
      </trkpt>
      <trkpt lat="45.56816" lon="2.80257">
        <ele>1226.0661549991</ele>
        <time>2019-09-29T07:17:30Z</time>
      </trkpt>
      <trkpt lat="45.568" lon="2.80255">
        <ele>1226.9286710709</ele>
        <time>2019-09-29T07:17:40Z</time>
      </trkpt>
      <trkpt lat="45.56793" lon="2.80258">
        <ele>1227.639853973</ele>
        <time>2019-09-29T07:17:50Z</time>
      </trkpt>
      <trkpt lat="45.56788" lon="2.80255">
        <ele>1228.2014471333</ele>
        <time>2019-09-29T07:17:59Z</time>
      </trkpt>
      <trkpt lat="45.56782" lon="2.80253">
        <ele>1228.7352275073</ele>
        <time>2019-09-29T07:18:08Z</time>
      </trkpt>
      <trkpt lat="45.56775" lon="2.80246">
        <ele>1229.2656924592</ele>
        <time>2019-09-29T07:18:18Z</time>
      </trkpt>
      <trkpt lat="45.5677" lon="2.80231">
        <ele>1229.7759179154</ele>
        <time>2019-09-29T07:18:28Z</time>
      </trkpt>
      <trkpt lat="45.56766" lon="2.80219">
        <ele>1230.2287398653</ele>
        <time>2019-09-29T07:18:37Z</time>
      </trkpt>
      <trkpt lat="45.5676" lon="2.8021">
        <ele>1230.6148307595</ele>
        <time>2019-09-29T07:18:46Z</time>
      </trkpt>
      <trkpt lat="45.56753" lon="2.8021">
        <ele>1231.0229382225</ele>
        <time>2019-09-29T07:18:56Z</time>
      </trkpt>
      <trkpt lat="45.56748" lon="2.80207">
        <ele>1231.5414586388</ele>
        <time>2019-09-29T07:19:06Z</time>
      </trkpt>
      <trkpt lat="45.56736" lon="2.80205">
        <ele>1232.0038206511</ele>
        <time>2019-09-29T07:19:15Z</time>
      </trkpt>
      <trkpt lat="45.56726" lon="2.80208">
        <ele>1232.4516645939</ele>
        <time>2019-09-29T07:19:24Z</time>
      </trkpt>
      <trkpt lat="45.5672" lon="2.80209">
        <ele>1232.8241899945</ele>
        <time>2019-09-29T07:19:34Z</time>
      </trkpt>
      <trkpt lat="45.56708" lon="2.80207">
        <ele>1233.2925487887</ele>
        <time>2019-09-29T07:19:44Z</time>
      </trkpt>
      <trkpt lat="45.56701" lon="2.8021">
        <ele>1233.7971213916</ele>
        <time>2019-09-29T07:19:54Z</time>
      </trkpt>
      <trkpt lat="45.56688" lon="2.80205">
        <ele>1234.3041483962</ele>
        <time>2019-09-29T07:20:03Z</time>
      </trkpt>
      <trkpt lat="45.56679" lon="2.80208">
        <ele>1234.8762835136</ele>
        <time>2019-09-29T07:20:12Z</time>
      </trkpt>
      <trkpt lat="45.56668" lon="2.80222">
        <ele>1235.391338618</ele>
        <time>2019-09-29T07:20:22Z</time>
      </trkpt>
      <trkpt lat="45.56662" lon="2.80227">
        <ele>1235.9616597044</ele>
        <time>2019-09-29T07:20:31Z</time>
      </trkpt>
      <trkpt lat="45.56655" lon="2.80229">
        <ele>1236.625035817</ele>
        <time>2019-09-29T07:20:41Z</time>
      </trkpt>
      <trkpt lat="45.56647" lon="2.80235">
        <ele>1237.2829084327</ele>
        <time>2019-09-29T07:20:50Z</time>
      </trkpt>
      <trkpt lat="45.56639" lon="2.80246">
        <ele>1238.0316707511</ele>
        <time>2019-09-29T07:20:59Z</time>
      </trkpt>
      <trkpt lat="45.56633" lon="2.80245">
        <ele>1238.8433578707</ele>
        <time>2019-09-29T07:21:08Z</time>
      </trkpt>
      <trkpt lat="45.56624" lon="2.80247">
        <ele>1239.8751224376</ele>
        <time>2019-09-29T07:21:17Z</time>
      </trkpt>
      <trkpt lat="45.56615" lon="2.80251">
        <ele>1241.1981845558</ele>
        <time>2019-09-29T07:21:27Z</time>
      </trkpt>
      <trkpt lat="45.56609" lon="2.80253">
        <ele>1241.9875413389</ele>
        <time>2019-09-29T07:21:36Z</time>
      </trkpt>
      <trkpt lat="45.56598" lon="2.80258">
        <ele>1243.3086151164</ele>
        <time>2019-09-29T07:21:46Z</time>
      </trkpt>
      <trkpt lat="45.56586" lon="2.80257">
        <ele>1244.4113981864</ele>
        <time>2019-09-29T07:21:56Z</time>
      </trkpt>
      <trkpt lat="45.56578" lon="2.8025">
        <ele>1245.240180529</ele>
        <time>2019-09-29T07:22:05Z</time>
      </trkpt>
      <trkpt lat="45.56571" lon="2.80244">
        <ele>1245.9201831269</ele>
        <time>2019-09-29T07:22:14Z</time>
      </trkpt>
      <trkpt lat="45.5657" lon="2.80243">
        <ele>1246.0532895872</ele>
        <time>2019-09-29T07:22:24Z</time>
      </trkpt>
      <trkpt lat="45.5657" lon="2.80242">
        <ele>1246.2046058432</ele>
        <time>2019-09-29T07:22:33Z</time>
      </trkpt>
      <trkpt lat="45.56573" lon="2.80242">
        <ele>1246.8756870589</ele>
        <time>2019-09-29T07:22:42Z</time>
      </trkpt>
      <trkpt lat="45.56573" lon="2.80243">
        <ele>1247.440078559</ele>
        <time>2019-09-29T07:22:52Z</time>
      </trkpt>
      <trkpt lat="45.56574" lon="2.80244">
        <ele>1247.8606428892</ele>
        <time>2019-09-29T07:23:07Z</time>
      </trkpt>
      <trkpt lat="45.56574" lon="2.80244">
        <ele>1249.230270811</ele>
        <time>2019-09-29T07:23:26Z</time>
      </trkpt>
      <trkpt lat="45.56575" lon="2.80244">
        <ele>1249.7108911014</ele>
        <time>2019-09-29T07:23:38Z</time>
      </trkpt>
      <trkpt lat="45.56575" lon="2.80243">
        <ele>1250.9805711177</ele>
        <time>2019-09-29T07:23:49Z</time>
      </trkpt>
      <trkpt lat="45.56572" lon="2.80241">
        <ele>1253.527204045</ele>
        <time>2019-09-29T07:23:58Z</time>
      </trkpt>
      <trkpt lat="45.56572" lon="2.80244">
        <ele>1254.2637213923</ele>
        <time>2019-09-29T07:24:07Z</time>
      </trkpt>
      <trkpt lat="45.56571" lon="2.80245">
        <ele>1254.6502116811</ele>
        <time>2019-09-29T07:24:16Z</time>
      </trkpt>
      <trkpt lat="45.56571" lon="2.80252">
        <ele>1255.8911812233</ele>
        <time>2019-09-29T07:24:26Z</time>
      </trkpt>
      <trkpt lat="45.56572" lon="2.80253">
        <ele>1258.022560496</ele>
        <time>2019-09-29T07:24:38Z</time>
      </trkpt>
      <trkpt lat="45.56572" lon="2.80254">
        <ele>1258.5520562692</ele>
        <time>2019-09-29T07:24:50Z</time>
      </trkpt>
      <trkpt lat="45.56573" lon="2.80256">
        <ele>1259.7381621169</ele>
        <time>2019-09-29T07:24:59Z</time>
      </trkpt>
      <trkpt lat="45.56572" lon="2.80255">
        <ele>1261.3066091687</ele>
        <time>2019-09-29T07:25:09Z</time>
      </trkpt>
      <trkpt lat="45.56571" lon="2.80257">
        <ele>1264.4782035496</ele>
        <time>2019-09-29T07:25:19Z</time>
      </trkpt>
      <trkpt lat="45.56558" lon="2.80266">
        <ele>1267.7375255434</ele>
        <time>2019-09-29T07:25:29Z</time>
      </trkpt>
      <trkpt lat="45.56545" lon="2.80275">
        <ele>1270.1639762311</ele>
        <time>2019-09-29T07:25:38Z</time>
      </trkpt>
      <trkpt lat="45.56538" lon="2.8028">
        <ele>1272.1654112019</ele>
        <time>2019-09-29T07:25:47Z</time>
      </trkpt>
      <trkpt lat="45.56527" lon="2.80279">
        <ele>1274.0340625496</ele>
        <time>2019-09-29T07:25:57Z</time>
      </trkpt>
      <trkpt lat="45.56523" lon="2.80279">
        <ele>1275.4653520025</ele>
        <time>2019-09-29T07:26:06Z</time>
      </trkpt>
      <trkpt lat="45.56516" lon="2.80278">
        <ele>1276.3653375273</ele>
        <time>2019-09-29T07:26:16Z</time>
      </trkpt>
      <trkpt lat="45.56508" lon="2.80275">
        <ele>1277.3615056437</ele>
        <time>2019-09-29T07:26:25Z</time>
      </trkpt>
      <trkpt lat="45.56506" lon="2.80271">
        <ele>1278.2128622842</ele>
        <time>2019-09-29T07:26:35Z</time>
      </trkpt>
      <trkpt lat="45.56505" lon="2.80262">
        <ele>1278.89546408</ele>
        <time>2019-09-29T07:26:44Z</time>
      </trkpt>
      <trkpt lat="45.56496" lon="2.80256">
        <ele>1279.4808331566</ele>
        <time>2019-09-29T07:26:53Z</time>
      </trkpt>
      <trkpt lat="45.5649" lon="2.80254">
        <ele>1279.9809279003</ele>
        <time>2019-09-29T07:27:03Z</time>
      </trkpt>
      <trkpt lat="45.56482" lon="2.80259">
        <ele>1280.3392137813</ele>
        <time>2019-09-29T07:27:12Z</time>
      </trkpt>
      <trkpt lat="45.56476" lon="2.80259">
        <ele>1280.6069554357</ele>
        <time>2019-09-29T07:27:21Z</time>
      </trkpt>
      <trkpt lat="45.56469" lon="2.80253">
        <ele>1280.7784365516</ele>
        <time>2019-09-29T07:27:31Z</time>
      </trkpt>
      <trkpt lat="45.56458" lon="2.80246">
        <ele>1280.9849702415</ele>
        <time>2019-09-29T07:27:40Z</time>
      </trkpt>
      <trkpt lat="45.56455" lon="2.80245">
        <ele>1281.2712977571</ele>
        <time>2019-09-29T07:27:50Z</time>
      </trkpt>
      <trkpt lat="45.56446" lon="2.8025">
        <ele>1281.6279706783</ele>
        <time>2019-09-29T07:27:59Z</time>
      </trkpt>
      <trkpt lat="45.56436" lon="2.80247">
        <ele>1281.9292147023</ele>
        <time>2019-09-29T07:28:08Z</time>
      </trkpt>
      <trkpt lat="45.56427" lon="2.80245">
        <ele>1282.2179381118</ele>
        <time>2019-09-29T07:28:17Z</time>
      </trkpt>
      <trkpt lat="45.56416" lon="2.80229">
        <ele>1282.5460649387</ele>
        <time>2019-09-29T07:28:27Z</time>
      </trkpt>
      <trkpt lat="45.56416" lon="2.80229">
        <ele>1282.6601950878</ele>
        <time>2019-09-29T07:28:38Z</time>
      </trkpt>
      <trkpt lat="45.56415" lon="2.80229">
        <ele>1282.8197863469</ele>
        <time>2019-09-29T07:28:49Z</time>
      </trkpt>
      <trkpt lat="45.56416" lon="2.80229">
        <ele>1283.3760981707</ele>
        <time>2019-09-29T07:28:59Z</time>
      </trkpt>
      <trkpt lat="45.56417" lon="2.80229">
        <ele>1284.188905449</ele>
        <time>2019-09-29T07:29:08Z</time>
      </trkpt>
      <trkpt lat="45.56413" lon="2.80225">
        <ele>1286.0375179581</ele>
        <time>2019-09-29T07:29:17Z</time>
      </trkpt>
      <trkpt lat="45.56406" lon="2.80225">
        <ele>1287.6817270533</ele>
        <time>2019-09-29T07:29:26Z</time>
      </trkpt>
      <trkpt lat="45.56397" lon="2.80226">
        <ele>1289.2433189032</ele>
        <time>2019-09-29T07:29:35Z</time>
      </trkpt>
      <trkpt lat="45.56386" lon="2.80231">
        <ele>1290.5287221177</ele>
        <time>2019-09-29T07:29:44Z</time>
      </trkpt>
      <trkpt lat="45.56378" lon="2.80227">
        <ele>1291.6568238431</ele>
        <time>2019-09-29T07:29:54Z</time>
      </trkpt>
      <trkpt lat="45.56376" lon="2.80218">
        <ele>1292.4730422392</ele>
        <time>2019-09-29T07:30:04Z</time>
      </trkpt>
      <trkpt lat="45.56371" lon="2.80208">
        <ele>1292.9278845379</ele>
        <time>2019-09-29T07:30:13Z</time>
      </trkpt>
      <trkpt lat="45.56362" lon="2.802">
        <ele>1293.5028133729</ele>
        <time>2019-09-29T07:30:23Z</time>
      </trkpt>
      <trkpt lat="45.56358" lon="2.80188">
        <ele>1294.0398774122</ele>
        <time>2019-09-29T07:30:33Z</time>
      </trkpt>
      <trkpt lat="45.56356" lon="2.80182">
        <ele>1294.4800545204</ele>
        <time>2019-09-29T07:30:42Z</time>
      </trkpt>
      <trkpt lat="45.56345" lon="2.80157">
        <ele>1294.8611278509</ele>
        <time>2019-09-29T07:30:51Z</time>
      </trkpt>
      <trkpt lat="45.56336" lon="2.80152">
        <ele>1295.153049833</ele>
        <time>2019-09-29T07:31:00Z</time>
      </trkpt>
      <trkpt lat="45.56336" lon="2.80153">
        <ele>1295.2330253642</ele>
        <time>2019-09-29T07:31:12Z</time>
      </trkpt>
      <trkpt lat="45.56325" lon="2.80148">
        <ele>1295.0176435091</ele>
        <time>2019-09-29T07:31:22Z</time>
      </trkpt>
      <trkpt lat="45.56316" lon="2.80142">
        <ele>1294.971149259</ele>
        <time>2019-09-29T07:31:31Z</time>
      </trkpt>
      <trkpt lat="45.56302" lon="2.80138">
        <ele>1294.9302119587</ele>
        <time>2019-09-29T07:31:41Z</time>
      </trkpt>
      <trkpt lat="45.56299" lon="2.80135">
        <ele>1295.3549795849</ele>
        <time>2019-09-29T07:31:50Z</time>
      </trkpt>
      <trkpt lat="45.56291" lon="2.80133">
        <ele>1296.0936612907</ele>
        <time>2019-09-29T07:31:59Z</time>
      </trkpt>
      <trkpt lat="45.56279" lon="2.80129">
        <ele>1296.9939015272</ele>
        <time>2019-09-29T07:32:09Z</time>
      </trkpt>
      <trkpt lat="45.56275" lon="2.80125">
        <ele>1297.9272166345</ele>
        <time>2019-09-29T07:32:18Z</time>
      </trkpt>
      <trkpt lat="45.56275" lon="2.80125">
        <ele>1298.048963718</ele>
        <time>2019-09-29T07:32:27Z</time>
      </trkpt>
      <trkpt lat="45.56267" lon="2.80127">
        <ele>1299.390104763</ele>
        <time>2019-09-29T07:32:37Z</time>
      </trkpt>
      <trkpt lat="45.56253" lon="2.80133">
        <ele>1300.9036501608</ele>
        <time>2019-09-29T07:32:47Z</time>
      </trkpt>
      <trkpt lat="45.56242" lon="2.8013">
        <ele>1302.1228543359</ele>
        <time>2019-09-29T07:32:56Z</time>
      </trkpt>
      <trkpt lat="45.56235" lon="2.80134">
        <ele>1303.0944548676</ele>
        <time>2019-09-29T07:33:06Z</time>
      </trkpt>
      <trkpt lat="45.5623" lon="2.80134">
        <ele>1303.9275880304</ele>
        <time>2019-09-29T07:33:16Z</time>
      </trkpt>
      <trkpt lat="45.56223" lon="2.80131">
        <ele>1304.5404006928</ele>
        <time>2019-09-29T07:33:25Z</time>
      </trkpt>
      <trkpt lat="45.56216" lon="2.80131">
        <ele>1305.2293211306</ele>
        <time>2019-09-29T07:33:35Z</time>
      </trkpt>
      <trkpt lat="45.56207" lon="2.80133">
        <ele>1305.78181319</ele>
        <time>2019-09-29T07:33:44Z</time>
      </trkpt>
      <trkpt lat="45.56198" lon="2.80132">
        <ele>1306.3213087784</ele>
        <time>2019-09-29T07:33:53Z</time>
      </trkpt>
      <trkpt lat="45.5619" lon="2.80134">
        <ele>1306.8896400826</ele>
        <time>2019-09-29T07:34:02Z</time>
      </trkpt>
      <trkpt lat="45.56181" lon="2.80135">
        <ele>1307.6044599167</ele>
        <time>2019-09-29T07:34:11Z</time>
      </trkpt>
      <trkpt lat="45.56176" lon="2.80135">
        <ele>1308.5046286175</ele>
        <time>2019-09-29T07:34:20Z</time>
      </trkpt>
      <trkpt lat="45.56167" lon="2.8013">
        <ele>1309.48969704</ele>
        <time>2019-09-29T07:34:29Z</time>
      </trkpt>
      <trkpt lat="45.5616" lon="2.80126">
        <ele>1310.6652368986</ele>
        <time>2019-09-29T07:34:39Z</time>
      </trkpt>
      <trkpt lat="45.56151" lon="2.80127">
        <ele>1312.0756572107</ele>
        <time>2019-09-29T07:34:48Z</time>
      </trkpt>
      <trkpt lat="45.56142" lon="2.80122">
        <ele>1313.3881045973</ele>
        <time>2019-09-29T07:34:57Z</time>
      </trkpt>
      <trkpt lat="45.56135" lon="2.80123">
        <ele>1314.482960011</ele>
        <time>2019-09-29T07:35:06Z</time>
      </trkpt>
      <trkpt lat="45.56124" lon="2.80118">
        <ele>1315.7066822205</ele>
        <time>2019-09-29T07:35:16Z</time>
      </trkpt>
      <trkpt lat="45.56115" lon="2.80113">
        <ele>1316.8271096349</ele>
        <time>2019-09-29T07:35:25Z</time>
      </trkpt>
      <trkpt lat="45.56105" lon="2.8011">
        <ele>1317.9599580995</ele>
        <time>2019-09-29T07:35:35Z</time>
      </trkpt>
      <trkpt lat="45.56094" lon="2.80107">
        <ele>1318.8989890735</ele>
        <time>2019-09-29T07:35:44Z</time>
      </trkpt>
      <trkpt lat="45.56087" lon="2.80107">
        <ele>1320.0635091465</ele>
        <time>2019-09-29T07:35:53Z</time>
      </trkpt>
      <trkpt lat="45.56078" lon="2.80107">
        <ele>1321.5261679925</ele>
        <time>2019-09-29T07:36:03Z</time>
      </trkpt>
      <trkpt lat="45.56072" lon="2.801">
        <ele>1322.7327021384</ele>
        <time>2019-09-29T07:36:12Z</time>
      </trkpt>
      <trkpt lat="45.56063" lon="2.80096">
        <ele>1324.1755843158</ele>
        <time>2019-09-29T07:36:22Z</time>
      </trkpt>
      <trkpt lat="45.56054" lon="2.80095">
        <ele>1325.5772530872</ele>
        <time>2019-09-29T07:36:31Z</time>
      </trkpt>
      <trkpt lat="45.56049" lon="2.80096">
        <ele>1327.2543248045</ele>
        <time>2019-09-29T07:36:41Z</time>
      </trkpt>
      <trkpt lat="45.56042" lon="2.80092">
        <ele>1328.7474507843</ele>
        <time>2019-09-29T07:36:50Z</time>
      </trkpt>
      <trkpt lat="45.56031" lon="2.80089">
        <ele>1330.1134739531</ele>
        <time>2019-09-29T07:36:59Z</time>
      </trkpt>
      <trkpt lat="45.56023" lon="2.8009">
        <ele>1331.5354990089</ele>
        <time>2019-09-29T07:37:09Z</time>
      </trkpt>
      <trkpt lat="45.56015" lon="2.80089">
        <ele>1332.7423290402</ele>
        <time>2019-09-29T07:37:19Z</time>
      </trkpt>
      <trkpt lat="45.5601" lon="2.80081">
        <ele>1333.8670911455</ele>
        <time>2019-09-29T07:37:28Z</time>
      </trkpt>
      <trkpt lat="45.56002" lon="2.8008">
        <ele>1334.713632328</ele>
        <time>2019-09-29T07:37:37Z</time>
      </trkpt>
      <trkpt lat="45.55994" lon="2.80079">
        <ele>1335.8015195743</ele>
        <time>2019-09-29T07:37:46Z</time>
      </trkpt>
      <trkpt lat="45.55988" lon="2.80081">
        <ele>1336.756615597</ele>
        <time>2019-09-29T07:37:55Z</time>
      </trkpt>
      <trkpt lat="45.55982" lon="2.8008">
        <ele>1337.5525164459</ele>
        <time>2019-09-29T07:38:04Z</time>
      </trkpt>
      <trkpt lat="45.55972" lon="2.80068">
        <ele>1338.2133781878</ele>
        <time>2019-09-29T07:38:14Z</time>
      </trkpt>
      <trkpt lat="45.55961" lon="2.80062">
        <ele>1338.7362272787</ele>
        <time>2019-09-29T07:38:23Z</time>
      </trkpt>
      <trkpt lat="45.55952" lon="2.80055">
        <ele>1339.2400299564</ele>
        <time>2019-09-29T07:38:32Z</time>
      </trkpt>
      <trkpt lat="45.55949" lon="2.80056">
        <ele>1339.9041582509</ele>
        <time>2019-09-29T07:38:42Z</time>
      </trkpt>
      <trkpt lat="45.55942" lon="2.80055">
        <ele>1340.5251029984</ele>
        <time>2019-09-29T07:38:51Z</time>
      </trkpt>
      <trkpt lat="45.55933" lon="2.80057">
        <ele>1340.995180203</ele>
        <time>2019-09-29T07:39:00Z</time>
      </trkpt>
      <trkpt lat="45.55924" lon="2.80056">
        <ele>1341.4454942899</ele>
        <time>2019-09-29T07:39:09Z</time>
      </trkpt>
      <trkpt lat="45.55916" lon="2.80059">
        <ele>1341.718231613</ele>
        <time>2019-09-29T07:39:18Z</time>
      </trkpt>
      <trkpt lat="45.55909" lon="2.80062">
        <ele>1342.0039947441</ele>
        <time>2019-09-29T07:39:28Z</time>
      </trkpt>
      <trkpt lat="45.55901" lon="2.80067">
        <ele>1342.3916229243</ele>
        <time>2019-09-29T07:39:37Z</time>
      </trkpt>
      <trkpt lat="45.55892" lon="2.80072">
        <ele>1342.8155487183</ele>
        <time>2019-09-29T07:39:46Z</time>
      </trkpt>
      <trkpt lat="45.55881" lon="2.8007">
        <ele>1343.0889984348</ele>
        <time>2019-09-29T07:39:55Z</time>
      </trkpt>
      <trkpt lat="45.55874" lon="2.80067">
        <ele>1343.4163576162</ele>
        <time>2019-09-29T07:40:05Z</time>
      </trkpt>
      <trkpt lat="45.5587" lon="2.80062">
        <ele>1343.6754270206</ele>
        <time>2019-09-29T07:40:14Z</time>
      </trkpt>
      <trkpt lat="45.55868" lon="2.80062">
        <ele>1343.8197249306</ele>
        <time>2019-09-29T07:40:23Z</time>
      </trkpt>
      <trkpt lat="45.55868" lon="2.80062">
        <ele>1343.9334952298</ele>
        <time>2019-09-29T07:40:34Z</time>
      </trkpt>
      <trkpt lat="45.55867" lon="2.80061">
        <ele>1344.1827121345</ele>
        <time>2019-09-29T07:40:44Z</time>
      </trkpt>
      <trkpt lat="45.55866" lon="2.8006">
        <ele>1344.3182898934</ele>
        <time>2019-09-29T07:40:53Z</time>
      </trkpt>
      <trkpt lat="45.55864" lon="2.80059">
        <ele>1344.4653864046</ele>
        <time>2019-09-29T07:41:02Z</time>
      </trkpt>
      <trkpt lat="45.55863" lon="2.80059">
        <ele>1345.0461642442</ele>
        <time>2019-09-29T07:41:18Z</time>
      </trkpt>
      <trkpt lat="45.55862" lon="2.80058">
        <ele>1345.7426277511</ele>
        <time>2019-09-29T07:41:41Z</time>
      </trkpt>
      <trkpt lat="45.55862" lon="2.80057">
        <ele>1346.066175213</ele>
        <time>2019-09-29T07:41:51Z</time>
      </trkpt>
      <trkpt lat="45.55861" lon="2.80057">
        <ele>1347.1395631199</ele>
        <time>2019-09-29T07:42:50Z</time>
      </trkpt>
      <trkpt lat="45.5586" lon="2.80057">
        <ele>1348.1329119907</ele>
        <time>2019-09-29T07:43:04Z</time>
      </trkpt>
      <trkpt lat="45.55859" lon="2.80066">
        <ele>1349.6523707403</ele>
        <time>2019-09-29T07:43:14Z</time>
      </trkpt>
      <trkpt lat="45.5586" lon="2.80073">
        <ele>1350.8313240074</ele>
        <time>2019-09-29T07:43:23Z</time>
      </trkpt>
      <trkpt lat="45.55862" lon="2.80073">
        <ele>1351.8462054433</ele>
        <time>2019-09-29T07:43:32Z</time>
      </trkpt>
      <trkpt lat="45.55865" lon="2.80076">
        <ele>1352.7340562206</ele>
        <time>2019-09-29T07:43:41Z</time>
      </trkpt>
      <trkpt lat="45.55872" lon="2.80079">
        <ele>1353.5385459778</ele>
        <time>2019-09-29T07:43:51Z</time>
      </trkpt>
      <trkpt lat="45.5588" lon="2.80081">
        <ele>1354.1185889648</ele>
        <time>2019-09-29T07:44:00Z</time>
      </trkpt>
      <trkpt lat="45.55889" lon="2.80085">
        <ele>1354.6153195603</ele>
        <time>2019-09-29T07:44:10Z</time>
      </trkpt>
      <trkpt lat="45.55905" lon="2.80089">
        <ele>1355.0708445187</ele>
        <time>2019-09-29T07:44:20Z</time>
      </trkpt>
      <trkpt lat="45.55903" lon="2.80105">
        <ele>1355.4184890769</ele>
        <time>2019-09-29T07:44:29Z</time>
      </trkpt>
      <trkpt lat="45.55905" lon="2.80119">
        <ele>1355.774248629</ele>
        <time>2019-09-29T07:44:39Z</time>
      </trkpt>
      <trkpt lat="45.5591" lon="2.80126">
        <ele>1356.0050136102</ele>
        <time>2019-09-29T07:44:48Z</time>
      </trkpt>
      <trkpt lat="45.55912" lon="2.80128">
        <ele>1356.2251583538</ele>
        <time>2019-09-29T07:44:58Z</time>
      </trkpt>
      <trkpt lat="45.55912" lon="2.80129">
        <ele>1356.5608685512</ele>
        <time>2019-09-29T07:45:08Z</time>
      </trkpt>
      <trkpt lat="45.55913" lon="2.80133">
        <ele>1356.8180548496</ele>
        <time>2019-09-29T07:45:17Z</time>
      </trkpt>
      <trkpt lat="45.55914" lon="2.80135">
        <ele>1357.0706476058</ele>
        <time>2019-09-29T07:45:26Z</time>
      </trkpt>
      <trkpt lat="45.55917" lon="2.80136">
        <ele>1357.4694431913</ele>
        <time>2019-09-29T07:45:35Z</time>
      </trkpt>
      <trkpt lat="45.55917" lon="2.80139">
        <ele>1357.9309679342</ele>
        <time>2019-09-29T07:45:44Z</time>
      </trkpt>
      <trkpt lat="45.5592" lon="2.80149">
        <ele>1358.4502555332</ele>
        <time>2019-09-29T07:45:53Z</time>
      </trkpt>
      <trkpt lat="45.55925" lon="2.8016">
        <ele>1358.9151598703</ele>
        <time>2019-09-29T07:46:02Z</time>
      </trkpt>
      <trkpt lat="45.55927" lon="2.80162">
        <ele>1359.03407714</ele>
        <time>2019-09-29T07:46:12Z</time>
      </trkpt>
      <trkpt lat="45.55927" lon="2.80163">
        <ele>1359.1592130624</ele>
        <time>2019-09-29T07:46:29Z</time>
      </trkpt>
      <trkpt lat="45.55928" lon="2.80164">
        <ele>1359.2770809465</ele>
        <time>2019-09-29T07:46:43Z</time>
      </trkpt>
      <trkpt lat="45.55929" lon="2.80166">
        <ele>1359.6980022499</ele>
        <time>2019-09-29T07:46:53Z</time>
      </trkpt>
      <trkpt lat="45.55928" lon="2.8017">
        <ele>1360.4507284418</ele>
        <time>2019-09-29T07:47:02Z</time>
      </trkpt>
      <trkpt lat="45.55927" lon="2.80179">
        <ele>1361.1167313583</ele>
        <time>2019-09-29T07:47:11Z</time>
      </trkpt>
      <trkpt lat="45.55928" lon="2.80187">
        <ele>1361.7236210754</ele>
        <time>2019-09-29T07:47:20Z</time>
      </trkpt>
      <trkpt lat="45.55928" lon="2.80197">
        <ele>1362.292939646</ele>
        <time>2019-09-29T07:47:29Z</time>
      </trkpt>
      <trkpt lat="45.5593" lon="2.80208">
        <ele>1362.8951532894</ele>
        <time>2019-09-29T07:47:39Z</time>
      </trkpt>
      <trkpt lat="45.55934" lon="2.80216">
        <ele>1363.4815651257</ele>
        <time>2019-09-29T07:47:49Z</time>
      </trkpt>
      <trkpt lat="45.55939" lon="2.80228">
        <ele>1364.0878827925</ele>
        <time>2019-09-29T07:47:59Z</time>
      </trkpt>
      <trkpt lat="45.55941" lon="2.80239">
        <ele>1364.6832945785</ele>
        <time>2019-09-29T07:48:08Z</time>
      </trkpt>
      <trkpt lat="45.55945" lon="2.80249">
        <ele>1365.3315571156</ele>
        <time>2019-09-29T07:48:17Z</time>
      </trkpt>
      <trkpt lat="45.55949" lon="2.80259">
        <ele>1366.1571772328</ele>
        <time>2019-09-29T07:48:27Z</time>
      </trkpt>
      <trkpt lat="45.55949" lon="2.80258">
        <ele>1367.1055408481</ele>
        <time>2019-09-29T07:48:37Z</time>
      </trkpt>
      <trkpt lat="45.55947" lon="2.80256">
        <ele>1368.0627566551</ele>
        <time>2019-09-29T07:48:46Z</time>
      </trkpt>
      <trkpt lat="45.55947" lon="2.80255">
        <ele>1369.240078271</ele>
        <time>2019-09-29T07:48:57Z</time>
      </trkpt>
      <trkpt lat="45.55949" lon="2.80257">
        <ele>1369.3827771622</ele>
        <time>2019-09-29T07:49:07Z</time>
      </trkpt>
      <trkpt lat="45.55949" lon="2.80257">
        <ele>1369.6983806771</ele>
        <time>2019-09-29T07:49:17Z</time>
      </trkpt>
      <trkpt lat="45.5595" lon="2.80256">
        <ele>1370.3439543105</ele>
        <time>2019-09-29T07:49:37Z</time>
      </trkpt>
      <trkpt lat="45.5595" lon="2.80268">
        <ele>1371.4801636546</ele>
        <time>2019-09-29T07:49:46Z</time>
      </trkpt>
      <trkpt lat="45.55953" lon="2.80271">
        <ele>1372.4678872018</ele>
        <time>2019-09-29T07:49:56Z</time>
      </trkpt>
      <trkpt lat="45.55954" lon="2.80272">
        <ele>1372.7806300961</ele>
        <time>2019-09-29T07:50:06Z</time>
      </trkpt>
      <trkpt lat="45.55954" lon="2.80273">
        <ele>1373.6496660458</ele>
        <time>2019-09-29T07:50:24Z</time>
      </trkpt>
      <trkpt lat="45.55956" lon="2.8027">
        <ele>1374.2535155149</ele>
        <time>2019-09-29T07:50:33Z</time>
      </trkpt>
      <trkpt lat="45.55956" lon="2.80269">
        <ele>1374.5953820793</ele>
        <time>2019-09-29T07:50:43Z</time>
      </trkpt>
      <trkpt lat="45.55957" lon="2.80264">
        <ele>1376.430906737</ele>
        <time>2019-09-29T07:50:52Z</time>
      </trkpt>
      <trkpt lat="45.55957" lon="2.80266">
        <ele>1377.9307018983</ele>
        <time>2019-09-29T07:51:02Z</time>
      </trkpt>
      <trkpt lat="45.55957" lon="2.80268">
        <ele>1378.5666742445</ele>
        <time>2019-09-29T07:51:12Z</time>
      </trkpt>
      <trkpt lat="45.55957" lon="2.80269">
        <ele>1379.2823957346</ele>
        <time>2019-09-29T07:51:24Z</time>
      </trkpt>
      <trkpt lat="45.55959" lon="2.80273">
        <ele>1380.2434998377</ele>
        <time>2019-09-29T07:51:33Z</time>
      </trkpt>
      <trkpt lat="45.5596" lon="2.80274">
        <ele>1380.9642622657</ele>
        <time>2019-09-29T07:51:44Z</time>
      </trkpt>
      <trkpt lat="45.55964" lon="2.80276">
        <ele>1382.9012525809</ele>
        <time>2019-09-29T07:51:53Z</time>
      </trkpt>
      <trkpt lat="45.55965" lon="2.80274">
        <ele>1383.5167923719</ele>
        <time>2019-09-29T07:52:02Z</time>
      </trkpt>
      <trkpt lat="45.55965" lon="2.80273">
        <ele>1384.2900826746</ele>
        <time>2019-09-29T07:52:15Z</time>
      </trkpt>
      <trkpt lat="45.55965" lon="2.80272">
        <ele>1385.5763821431</ele>
        <time>2019-09-29T07:52:26Z</time>
      </trkpt>
      <trkpt lat="45.55966" lon="2.80271">
        <ele>1386.5392399946</ele>
        <time>2019-09-29T07:52:46Z</time>
      </trkpt>
      <trkpt lat="45.55966" lon="2.80271">
        <ele>1389.4376159562</ele>
        <time>2019-09-29T07:53:16Z</time>
      </trkpt>
      <trkpt lat="45.55966" lon="2.80275">
        <ele>1391.4797325698</ele>
        <time>2019-09-29T07:53:25Z</time>
      </trkpt>
      <trkpt lat="45.55967" lon="2.80275">
        <ele>1392.7119225422</ele>
        <time>2019-09-29T07:53:55Z</time>
      </trkpt>
      <trkpt lat="45.55968" lon="2.80275">
        <ele>1393.637771841</ele>
        <time>2019-09-29T07:54:06Z</time>
      </trkpt>
      <trkpt lat="45.55968" lon="2.80277">
        <ele>1394.6489752216</ele>
        <time>2019-09-29T07:54:15Z</time>
      </trkpt>
      <trkpt lat="45.55969" lon="2.8028">
        <ele>1395.2346999166</ele>
        <time>2019-09-29T07:54:24Z</time>
      </trkpt>
      <trkpt lat="45.5597" lon="2.8028">
        <ele>1397.0094958487</ele>
        <time>2019-09-29T07:54:34Z</time>
      </trkpt>
      <trkpt lat="45.55971" lon="2.8028">
        <ele>1397.7971540994</ele>
        <time>2019-09-29T07:54:44Z</time>
      </trkpt>
      <trkpt lat="45.55974" lon="2.80282">
        <ele>1398.0980901572</ele>
        <time>2019-09-29T07:54:53Z</time>
      </trkpt>
      <trkpt lat="45.55975" lon="2.80283">
        <ele>1398.2501569281</ele>
        <time>2019-09-29T07:55:02Z</time>
      </trkpt>
      <trkpt lat="45.55976" lon="2.80284">
        <ele>1398.4004082875</ele>
        <time>2019-09-29T07:55:11Z</time>
      </trkpt>
      <trkpt lat="45.55977" lon="2.80285">
        <ele>1398.5465901943</ele>
        <time>2019-09-29T07:55:20Z</time>
      </trkpt>
      <trkpt lat="45.55978" lon="2.80287">
        <ele>1398.8470094971</ele>
        <time>2019-09-29T07:55:30Z</time>
      </trkpt>
      <trkpt lat="45.55979" lon="2.80288">
        <ele>1398.9980250564</ele>
        <time>2019-09-29T07:55:40Z</time>
      </trkpt>
      <trkpt lat="45.55981" lon="2.80292">
        <ele>1399.5076908597</ele>
        <time>2019-09-29T07:55:49Z</time>
      </trkpt>
      <trkpt lat="45.55981" lon="2.80292">
        <ele>1399.64117744</ele>
        <time>2019-09-29T07:55:59Z</time>
      </trkpt>
      <trkpt lat="45.55982" lon="2.80293">
        <ele>1399.899647136</ele>
        <time>2019-09-29T07:56:10Z</time>
      </trkpt>
      <trkpt lat="45.55982" lon="2.80294">
        <ele>1400.0109960965</ele>
        <time>2019-09-29T07:56:19Z</time>
      </trkpt>
      <trkpt lat="45.55983" lon="2.80291">
        <ele>1400.4471128302</ele>
        <time>2019-09-29T07:56:28Z</time>
      </trkpt>
      <trkpt lat="45.55988" lon="2.80288">
        <ele>1401.366029938</ele>
        <time>2019-09-29T07:56:38Z</time>
      </trkpt>
      <trkpt lat="45.55996" lon="2.80285">
        <ele>1402.175242632</ele>
        <time>2019-09-29T07:56:47Z</time>
      </trkpt>
      <trkpt lat="45.55996" lon="2.80286">
        <ele>1402.6015718213</ele>
        <time>2019-09-29T07:57:05Z</time>
      </trkpt>
      <trkpt lat="45.56002" lon="2.80288">
        <ele>1403.4115998277</ele>
        <time>2019-09-29T07:57:14Z</time>
      </trkpt>
      <trkpt lat="45.56007" lon="2.80288">
        <ele>1404.1912176283</ele>
        <time>2019-09-29T07:57:24Z</time>
      </trkpt>
      <trkpt lat="45.56013" lon="2.80288">
        <ele>1404.8057602161</ele>
        <time>2019-09-29T07:57:33Z</time>
      </trkpt>
      <trkpt lat="45.56016" lon="2.80285">
        <ele>1405.2450039055</ele>
        <time>2019-09-29T07:57:43Z</time>
      </trkpt>
      <trkpt lat="45.56018" lon="2.80283">
        <ele>1405.5442926923</ele>
        <time>2019-09-29T07:57:53Z</time>
      </trkpt>
      <trkpt lat="45.56016" lon="2.80279">
        <ele>1405.9324706809</ele>
        <time>2019-09-29T07:58:02Z</time>
      </trkpt>
      <trkpt lat="45.56018" lon="2.80278">
        <ele>1406.4284666846</ele>
        <time>2019-09-29T07:58:12Z</time>
      </trkpt>
      <trkpt lat="45.56019" lon="2.80275">
        <ele>1406.8863514394</ele>
        <time>2019-09-29T07:58:22Z</time>
      </trkpt>
      <trkpt lat="45.56022" lon="2.80274">
        <ele>1407.3288299254</ele>
        <time>2019-09-29T07:58:32Z</time>
      </trkpt>
      <trkpt lat="45.56023" lon="2.80275">
        <ele>1407.6758215785</ele>
        <time>2019-09-29T07:58:41Z</time>
      </trkpt>
      <trkpt lat="45.56024" lon="2.80276">
        <ele>1408.056437602</ele>
        <time>2019-09-29T07:58:50Z</time>
      </trkpt>
      <trkpt lat="45.56026" lon="2.80278">
        <ele>1408.289706345</ele>
        <time>2019-09-29T07:59:00Z</time>
      </trkpt>
      <trkpt lat="45.56027" lon="2.80279">
        <ele>1408.4794175655</ele>
        <time>2019-09-29T07:59:10Z</time>
      </trkpt>
      <trkpt lat="45.56028" lon="2.8028">
        <ele>1408.8484749005</ele>
        <time>2019-09-29T07:59:20Z</time>
      </trkpt>
      <trkpt lat="45.56035" lon="2.80285">
        <ele>1409.1809017907</ele>
        <time>2019-09-29T07:59:29Z</time>
      </trkpt>
      <trkpt lat="45.56036" lon="2.80284">
        <ele>1409.3765237228</ele>
        <time>2019-09-29T07:59:39Z</time>
      </trkpt>
      <trkpt lat="45.56041" lon="2.80289">
        <ele>1409.5966229485</ele>
        <time>2019-09-29T07:59:48Z</time>
      </trkpt>
      <trkpt lat="45.56042" lon="2.80293">
        <ele>1409.7985635104</ele>
        <time>2019-09-29T07:59:57Z</time>
      </trkpt>
      <trkpt lat="45.56043" lon="2.80294">
        <ele>1409.8697897148</ele>
        <time>2019-09-29T08:00:11Z</time>
      </trkpt>
      <trkpt lat="45.56048" lon="2.80293">
        <ele>1410.3808721605</ele>
        <time>2019-09-29T08:00:21Z</time>
      </trkpt>
      <trkpt lat="45.56049" lon="2.80291">
        <ele>1410.5674293013</ele>
        <time>2019-09-29T08:00:30Z</time>
      </trkpt>
      <trkpt lat="45.56054" lon="2.80284">
        <ele>1410.9266165159</ele>
        <time>2019-09-29T08:00:40Z</time>
      </trkpt>
      <trkpt lat="45.56055" lon="2.80284">
        <ele>1410.9962530868</ele>
        <time>2019-09-29T08:00:55Z</time>
      </trkpt>
      <trkpt lat="45.56059" lon="2.80282">
        <ele>1411.3572456212</ele>
        <time>2019-09-29T08:01:04Z</time>
      </trkpt>
      <trkpt lat="45.56059" lon="2.80281">
        <ele>1411.4820571312</ele>
        <time>2019-09-29T08:01:17Z</time>
      </trkpt>
      <trkpt lat="45.5606" lon="2.80276">
        <ele>1411.8155088357</ele>
        <time>2019-09-29T08:01:26Z</time>
      </trkpt>
      <trkpt lat="45.5606" lon="2.80274">
        <ele>1411.9107109696</ele>
        <time>2019-09-29T08:01:35Z</time>
      </trkpt>
      <trkpt lat="45.5606" lon="2.80272">
        <ele>1412.010139312</ele>
        <time>2019-09-29T08:01:44Z</time>
      </trkpt>
      <trkpt lat="45.56063" lon="2.80266">
        <ele>1412.3430902875</ele>
        <time>2019-09-29T08:01:53Z</time>
      </trkpt>
      <trkpt lat="45.56062" lon="2.80263">
        <ele>1412.637201288</ele>
        <time>2019-09-29T08:02:02Z</time>
      </trkpt>
      <trkpt lat="45.56061" lon="2.80262">
        <ele>1412.9560833874</ele>
        <time>2019-09-29T08:02:12Z</time>
      </trkpt>
      <trkpt lat="45.56059" lon="2.80258">
        <ele>1413.2988456907</ele>
        <time>2019-09-29T08:02:21Z</time>
      </trkpt>
      <trkpt lat="45.56065" lon="2.80264">
        <ele>1413.5083938641</ele>
        <time>2019-09-29T08:02:31Z</time>
      </trkpt>
      <trkpt lat="45.56066" lon="2.80266">
        <ele>1413.9062679495</ele>
        <time>2019-09-29T08:02:40Z</time>
      </trkpt>
      <trkpt lat="45.56063" lon="2.80268">
        <ele>1414.3383837795</ele>
        <time>2019-09-29T08:02:49Z</time>
      </trkpt>
      <trkpt lat="45.56061" lon="2.8027">
        <ele>1414.9360739642</ele>
        <time>2019-09-29T08:02:59Z</time>
      </trkpt>
      <trkpt lat="45.56063" lon="2.80272">
        <ele>1415.5876021475</ele>
        <time>2019-09-29T08:03:08Z</time>
      </trkpt>
      <trkpt lat="45.56065" lon="2.80279">
        <ele>1416.2576299292</ele>
        <time>2019-09-29T08:03:17Z</time>
      </trkpt>
      <trkpt lat="45.56071" lon="2.80287">
        <ele>1416.9114568417</ele>
        <time>2019-09-29T08:03:27Z</time>
      </trkpt>
      <trkpt lat="45.56071" lon="2.80288">
        <ele>1417.605320151</ele>
        <time>2019-09-29T08:03:37Z</time>
      </trkpt>
      <trkpt lat="45.56076" lon="2.80284">
        <ele>1418.4041989281</ele>
        <time>2019-09-29T08:03:46Z</time>
      </trkpt>
      <trkpt lat="45.56078" lon="2.80283">
        <ele>1419.1061653484</ele>
        <time>2019-09-29T08:03:55Z</time>
      </trkpt>
      <trkpt lat="45.56079" lon="2.80281">
        <ele>1419.718111688</ele>
        <time>2019-09-29T08:04:05Z</time>
      </trkpt>
      <trkpt lat="45.56078" lon="2.80281">
        <ele>1419.9023174059</ele>
        <time>2019-09-29T08:04:21Z</time>
      </trkpt>
      <trkpt lat="45.56077" lon="2.80281">
        <ele>1420.0959611155</ele>
        <time>2019-09-29T08:04:35Z</time>
      </trkpt>
      <trkpt lat="45.56077" lon="2.8028">
        <ele>1420.5126804223</ele>
        <time>2019-09-29T08:04:53Z</time>
      </trkpt>
      <trkpt lat="45.56076" lon="2.8028">
        <ele>1421.3022631806</ele>
        <time>2019-09-29T08:05:26Z</time>
      </trkpt>
      <trkpt lat="45.56075" lon="2.8028">
        <ele>1421.766095069</ele>
        <time>2019-09-29T08:05:46Z</time>
      </trkpt>
      <trkpt lat="45.56075" lon="2.80281">
        <ele>1422.6019729428</ele>
        <time>2019-09-29T08:06:10Z</time>
      </trkpt>
      <trkpt lat="45.56078" lon="2.80277">
        <ele>1423.6843056233</ele>
        <time>2019-09-29T08:06:19Z</time>
      </trkpt>
      <trkpt lat="45.56079" lon="2.80277">
        <ele>1424.0448894587</ele>
        <time>2019-09-29T08:06:41Z</time>
      </trkpt>
      <trkpt lat="45.5608" lon="2.80277">
        <ele>1424.2237176952</ele>
        <time>2019-09-29T08:06:51Z</time>
      </trkpt>
      <trkpt lat="45.56081" lon="2.80278">
        <ele>1425.1179613075</ele>
        <time>2019-09-29T08:07:20Z</time>
      </trkpt>
      <trkpt lat="45.56081" lon="2.80278">
        <ele>1425.3771570649</ele>
        <time>2019-09-29T08:07:33Z</time>
      </trkpt>
      <trkpt lat="45.56081" lon="2.80279">
        <ele>1426.1114021313</ele>
        <time>2019-09-29T08:07:43Z</time>
      </trkpt>
      <trkpt lat="45.56081" lon="2.8028">
        <ele>1427.4686289207</ele>
        <time>2019-09-29T08:08:01Z</time>
      </trkpt>
      <trkpt lat="45.56077" lon="2.80284">
        <ele>1428.9705746956</ele>
        <time>2019-09-29T08:08:10Z</time>
      </trkpt>
      <trkpt lat="45.56075" lon="2.80283">
        <ele>1429.7591431743</ele>
        <time>2019-09-29T08:08:19Z</time>
      </trkpt>
      <trkpt lat="45.56075" lon="2.8029">
        <ele>1430.8588502246</ele>
        <time>2019-09-29T08:08:29Z</time>
      </trkpt>
      <trkpt lat="45.56077" lon="2.80282">
        <ele>1431.9608375453</ele>
        <time>2019-09-29T08:08:39Z</time>
      </trkpt>
      <trkpt lat="45.56083" lon="2.80289">
        <ele>1432.6831858852</ele>
        <time>2019-09-29T08:08:49Z</time>
      </trkpt>
      <trkpt lat="45.56085" lon="2.80289">
        <ele>1432.8847046175</ele>
        <time>2019-09-29T08:08:58Z</time>
      </trkpt>
      <trkpt lat="45.56086" lon="2.80289">
        <ele>1433.0022651889</ele>
        <time>2019-09-29T08:09:08Z</time>
      </trkpt>
      <trkpt lat="45.56089" lon="2.80289">
        <ele>1433.4443914643</ele>
        <time>2019-09-29T08:09:17Z</time>
      </trkpt>
      <trkpt lat="45.56095" lon="2.80289">
        <ele>1433.9825942279</ele>
        <time>2019-09-29T08:09:27Z</time>
      </trkpt>
      <trkpt lat="45.56097" lon="2.80288">
        <ele>1434.3869202768</ele>
        <time>2019-09-29T08:09:36Z</time>
      </trkpt>
      <trkpt lat="45.56112" lon="2.80281">
        <ele>1435.3083386448</ele>
        <time>2019-09-29T08:09:45Z</time>
      </trkpt>
      <trkpt lat="45.56114" lon="2.80282">
        <ele>1436.0256330993</ele>
        <time>2019-09-29T08:09:55Z</time>
      </trkpt>
      <trkpt lat="45.56112" lon="2.80286">
        <ele>1436.2334542889</ele>
        <time>2019-09-29T08:10:04Z</time>
      </trkpt>
      <trkpt lat="45.56112" lon="2.80288">
        <ele>1436.6912172563</ele>
        <time>2019-09-29T08:10:14Z</time>
      </trkpt>
      <trkpt lat="45.5611" lon="2.80287">
        <ele>1437.1513821029</ele>
        <time>2019-09-29T08:10:23Z</time>
      </trkpt>
      <trkpt lat="45.5611" lon="2.80288">
        <ele>1437.1976090224</ele>
        <time>2019-09-29T08:10:32Z</time>
      </trkpt>
      <trkpt lat="45.56103" lon="2.80286">
        <ele>1437.5371658088</ele>
        <time>2019-09-29T08:10:42Z</time>
      </trkpt>
      <trkpt lat="45.56103" lon="2.80286">
        <ele>1437.9838739101</ele>
        <time>2019-09-29T08:11:22Z</time>
      </trkpt>
      <trkpt lat="45.56105" lon="2.80285">
        <ele>1438.0620290682</ele>
        <time>2019-09-29T08:11:32Z</time>
      </trkpt>
      <trkpt lat="45.56106" lon="2.80283">
        <ele>1438.6240848162</ele>
        <time>2019-09-29T08:11:42Z</time>
      </trkpt>
      <trkpt lat="45.56107" lon="2.80284">
        <ele>1439.0788786294</ele>
        <time>2019-09-29T08:11:57Z</time>
      </trkpt>
      <trkpt lat="45.56107" lon="2.80285">
        <ele>1439.2117367767</ele>
        <time>2019-09-29T08:12:09Z</time>
      </trkpt>
      <trkpt lat="45.56098" lon="2.80277">
        <ele>1439.8534890499</ele>
        <time>2019-09-29T08:12:18Z</time>
      </trkpt>
      <trkpt lat="45.56098" lon="2.80278">
        <ele>1440.51780632</ele>
        <time>2019-09-29T08:12:38Z</time>
      </trkpt>
      <trkpt lat="45.56099" lon="2.80279">
        <ele>1441.1287189888</ele>
        <time>2019-09-29T08:12:47Z</time>
      </trkpt>
      <trkpt lat="45.56098" lon="2.80279">
        <ele>1441.5270259334</ele>
        <time>2019-09-29T08:13:00Z</time>
      </trkpt>
      <trkpt lat="45.56101" lon="2.80274">
        <ele>1442.9101853165</ele>
        <time>2019-09-29T08:13:09Z</time>
      </trkpt>
      <trkpt lat="45.56104" lon="2.80276">
        <ele>1443.1959947317</ele>
        <time>2019-09-29T08:13:18Z</time>
      </trkpt>
      <trkpt lat="45.56104" lon="2.80276">
        <ele>1444.0289813043</ele>
        <time>2019-09-29T08:13:43Z</time>
      </trkpt>
      <trkpt lat="45.56099" lon="2.80287">
        <ele>1445.0787031396</ele>
        <time>2019-09-29T08:13:53Z</time>
      </trkpt>
      <trkpt lat="45.561" lon="2.80287">
        <ele>1445.6629996531</ele>
        <time>2019-09-29T08:14:29Z</time>
      </trkpt>
      <trkpt lat="45.56099" lon="2.80288">
        <ele>1445.777796026</ele>
        <time>2019-09-29T08:14:38Z</time>
      </trkpt>
      <trkpt lat="45.56099" lon="2.80287">
        <ele>1446.1201209276</ele>
        <time>2019-09-29T08:14:56Z</time>
      </trkpt>
      <trkpt lat="45.56099" lon="2.80286">
        <ele>1446.562253268</ele>
        <time>2019-09-29T08:15:14Z</time>
      </trkpt>
      <trkpt lat="45.56103" lon="2.80286">
        <ele>1446.6827435216</ele>
        <time>2019-09-29T08:15:24Z</time>
      </trkpt>
      <trkpt lat="45.5611" lon="2.80292">
        <ele>1446.9135539471</ele>
        <time>2019-09-29T08:15:34Z</time>
      </trkpt>
      <trkpt lat="45.56109" lon="2.80291">
        <ele>1448.3335948979</ele>
        <time>2019-09-29T08:16:05Z</time>
      </trkpt>
      <trkpt lat="45.56107" lon="2.80291">
        <ele>1448.4165649736</ele>
        <time>2019-09-29T08:16:14Z</time>
      </trkpt>
      <trkpt lat="45.56106" lon="2.80291">
        <ele>1448.5286243207</ele>
        <time>2019-09-29T08:16:26Z</time>
      </trkpt>
      <trkpt lat="45.56106" lon="2.80289">
        <ele>1448.9504535408</ele>
        <time>2019-09-29T08:16:36Z</time>
      </trkpt>
      <trkpt lat="45.56106" lon="2.80289">
        <ele>1449.3877482745</ele>
        <time>2019-09-29T08:17:09Z</time>
      </trkpt>
      <trkpt lat="45.56107" lon="2.80289">
        <ele>1449.4574331747</ele>
        <time>2019-09-29T08:17:18Z</time>
      </trkpt>
      <trkpt lat="45.56108" lon="2.80288">
        <ele>1449.5277944855</ele>
        <time>2019-09-29T08:17:27Z</time>
      </trkpt>
      <trkpt lat="45.56108" lon="2.80287">
        <ele>1450.205814973</ele>
        <time>2019-09-29T08:17:36Z</time>
      </trkpt>
      <trkpt lat="45.56109" lon="2.80288">
        <ele>1450.3299165302</ele>
        <time>2019-09-29T08:17:45Z</time>
      </trkpt>
      <trkpt lat="45.5611" lon="2.80289">
        <ele>1450.3907022001</ele>
        <time>2019-09-29T08:17:54Z</time>
      </trkpt>
      <trkpt lat="45.56111" lon="2.8029">
        <ele>1450.6937793483</ele>
        <time>2019-09-29T08:18:04Z</time>
      </trkpt>
      <trkpt lat="45.56107" lon="2.80282">
        <ele>1450.8131964058</ele>
        <time>2019-09-29T08:18:13Z</time>
      </trkpt>
      <trkpt lat="45.56103" lon="2.80277">
        <ele>1450.9963981038</ele>
        <time>2019-09-29T08:18:22Z</time>
      </trkpt>
      <trkpt lat="45.56102" lon="2.80277">
        <ele>1451.3440464543</ele>
        <time>2019-09-29T08:18:33Z</time>
      </trkpt>
      <trkpt lat="45.56101" lon="2.80281">
        <ele>1451.5506124042</ele>
        <time>2019-09-29T08:18:43Z</time>
      </trkpt>
      <trkpt lat="45.56106" lon="2.80285">
        <ele>1451.7021673315</ele>
        <time>2019-09-29T08:18:52Z</time>
      </trkpt>
      <trkpt lat="45.56106" lon="2.80286">
        <ele>1451.8181482047</ele>
        <time>2019-09-29T08:19:02Z</time>
      </trkpt>
      <trkpt lat="45.56105" lon="2.80292">
        <ele>1452.1276562491</ele>
        <time>2019-09-29T08:19:11Z</time>
      </trkpt>
      <trkpt lat="45.56103" lon="2.80294">
        <ele>1452.3842280206</ele>
        <time>2019-09-29T08:19:21Z</time>
      </trkpt>
      <trkpt lat="45.56095" lon="2.80297">
        <ele>1452.5235653376</ele>
        <time>2019-09-29T08:19:30Z</time>
      </trkpt>
      <trkpt lat="45.56087" lon="2.80302">
        <ele>1452.6151069734</ele>
        <time>2019-09-29T08:19:40Z</time>
      </trkpt>
      <trkpt lat="45.56083" lon="2.80306">
        <ele>1452.6379465918</ele>
        <time>2019-09-29T08:19:49Z</time>
      </trkpt>
      <trkpt lat="45.56088" lon="2.80315">
        <ele>1452.7567703697</ele>
        <time>2019-09-29T08:19:58Z</time>
      </trkpt>
      <trkpt lat="45.56088" lon="2.80312">
        <ele>1452.7682571197</ele>
        <time>2019-09-29T08:20:08Z</time>
      </trkpt>
      <trkpt lat="45.56087" lon="2.8031">
        <ele>1452.7891859433</ele>
        <time>2019-09-29T08:20:17Z</time>
      </trkpt>
      <trkpt lat="45.56087" lon="2.80309">
        <ele>1452.8210799235</ele>
        <time>2019-09-29T08:20:30Z</time>
      </trkpt>
      <trkpt lat="45.56086" lon="2.80308">
        <ele>1452.8617984893</ele>
        <time>2019-09-29T08:20:40Z</time>
      </trkpt>
      <trkpt lat="45.56086" lon="2.80306">
        <ele>1452.8861274944</ele>
        <time>2019-09-29T08:20:50Z</time>
      </trkpt>
      <trkpt lat="45.56092" lon="2.80306">
        <ele>1452.9820771778</ele>
        <time>2019-09-29T08:20:59Z</time>
      </trkpt>
      <trkpt lat="45.56094" lon="2.80304">
        <ele>1453.0541086365</ele>
        <time>2019-09-29T08:21:09Z</time>
      </trkpt>
      <trkpt lat="45.56092" lon="2.803">
        <ele>1453.1183637463</ele>
        <time>2019-09-29T08:21:18Z</time>
      </trkpt>
      <trkpt lat="45.56087" lon="2.80298">
        <ele>1453.1724152353</ele>
        <time>2019-09-29T08:21:28Z</time>
      </trkpt>
      <trkpt lat="45.56086" lon="2.80291">
        <ele>1453.2162757827</ele>
        <time>2019-09-29T08:21:37Z</time>
      </trkpt>
      <trkpt lat="45.56082" lon="2.80283">
        <ele>1453.2522088907</ele>
        <time>2019-09-29T08:21:46Z</time>
      </trkpt>
      <trkpt lat="45.5608" lon="2.80279">
        <ele>1453.270117719</ele>
        <time>2019-09-29T08:21:55Z</time>
      </trkpt>
      <trkpt lat="45.56077" lon="2.80273">
        <ele>1453.2857217779</ele>
        <time>2019-09-29T08:22:04Z</time>
      </trkpt>
      <trkpt lat="45.56077" lon="2.80272">
        <ele>1453.2897644753</ele>
        <time>2019-09-29T08:22:13Z</time>
      </trkpt>
      <trkpt lat="45.56073" lon="2.80265">
        <ele>1453.3039605707</ele>
        <time>2019-09-29T08:22:23Z</time>
      </trkpt>
      <trkpt lat="45.56072" lon="2.80262">
        <ele>1453.308294505</ele>
        <time>2019-09-29T08:22:32Z</time>
      </trkpt>
      <trkpt lat="45.56068" lon="2.8026">
        <ele>1453.2988565646</ele>
        <time>2019-09-29T08:22:42Z</time>
      </trkpt>
      <trkpt lat="45.56063" lon="2.80262">
        <ele>1453.2570388654</ele>
        <time>2019-09-29T08:22:51Z</time>
      </trkpt>
      <trkpt lat="45.56058" lon="2.80271">
        <ele>1453.178218215</ele>
        <time>2019-09-29T08:23:00Z</time>
      </trkpt>
      <trkpt lat="45.56057" lon="2.80279">
        <ele>1453.0704586652</ele>
        <time>2019-09-29T08:23:09Z</time>
      </trkpt>
      <trkpt lat="45.56053" lon="2.80283">
        <ele>1452.9553143709</ele>
        <time>2019-09-29T08:23:19Z</time>
      </trkpt>
      <trkpt lat="45.56052" lon="2.8029">
        <ele>1452.8809351279</ele>
        <time>2019-09-29T08:23:29Z</time>
      </trkpt>
      <trkpt lat="45.5605" lon="2.80287">
        <ele>1452.8190995739</ele>
        <time>2019-09-29T08:23:38Z</time>
      </trkpt>
      <trkpt lat="45.5605" lon="2.80291">
        <ele>1452.7821494894</ele>
        <time>2019-09-29T08:23:47Z</time>
      </trkpt>
      <trkpt lat="45.56051" lon="2.8029">
        <ele>1452.7645021774</ele>
        <time>2019-09-29T08:23:56Z</time>
      </trkpt>
      <trkpt lat="45.5605" lon="2.80291">
        <ele>1452.7492702242</ele>
        <time>2019-09-29T08:24:06Z</time>
      </trkpt>
      <trkpt lat="45.56049" lon="2.80295">
        <ele>1452.7399539817</ele>
        <time>2019-09-29T08:24:16Z</time>
      </trkpt>
      <trkpt lat="45.56052" lon="2.80295">
        <ele>1452.7397249926</ele>
        <time>2019-09-29T08:24:25Z</time>
      </trkpt>
      <trkpt lat="45.56051" lon="2.80293">
        <ele>1452.7248836043</ele>
        <time>2019-09-29T08:24:35Z</time>
      </trkpt>
      <trkpt lat="45.5605" lon="2.80293">
        <ele>1452.7067980664</ele>
        <time>2019-09-29T08:24:45Z</time>
      </trkpt>
      <trkpt lat="45.56049" lon="2.80293">
        <ele>1452.6055114424</ele>
        <time>2019-09-29T08:25:13Z</time>
      </trkpt>
      <trkpt lat="45.56045" lon="2.80293">
        <ele>1452.5217419816</ele>
        <time>2019-09-29T08:25:22Z</time>
      </trkpt>
      <trkpt lat="45.56039" lon="2.80286">
        <ele>1452.4299547732</ele>
        <time>2019-09-29T08:25:32Z</time>
      </trkpt>
      <trkpt lat="45.56035" lon="2.80284">
        <ele>1452.3148577118</ele>
        <time>2019-09-29T08:25:42Z</time>
      </trkpt>
      <trkpt lat="45.56032" lon="2.80281">
        <ele>1452.1616351267</ele>
        <time>2019-09-29T08:25:51Z</time>
      </trkpt>
      <trkpt lat="45.56027" lon="2.80279">
        <ele>1452.0145637615</ele>
        <time>2019-09-29T08:26:00Z</time>
      </trkpt>
      <trkpt lat="45.56021" lon="2.80272">
        <ele>1451.8389938819</ele>
        <time>2019-09-29T08:26:09Z</time>
      </trkpt>
      <trkpt lat="45.56021" lon="2.80277">
        <ele>1451.6406002774</ele>
        <time>2019-09-29T08:26:18Z</time>
      </trkpt>
      <trkpt lat="45.56016" lon="2.80281">
        <ele>1451.4702686044</ele>
        <time>2019-09-29T08:26:27Z</time>
      </trkpt>
      <trkpt lat="45.56015" lon="2.80297">
        <ele>1451.324168465</ele>
        <time>2019-09-29T08:26:36Z</time>
      </trkpt>
      <trkpt lat="45.56014" lon="2.80299">
        <ele>1451.1483396498</ele>
        <time>2019-09-29T08:26:45Z</time>
      </trkpt>
      <trkpt lat="45.56009" lon="2.80292">
        <ele>1450.9130181312</ele>
        <time>2019-09-29T08:26:54Z</time>
      </trkpt>
      <trkpt lat="45.56001" lon="2.80288">
        <ele>1450.6183356915</ele>
        <time>2019-09-29T08:27:04Z</time>
      </trkpt>
      <trkpt lat="45.55995" lon="2.80285">
        <ele>1450.3734112855</ele>
        <time>2019-09-29T08:27:14Z</time>
      </trkpt>
      <trkpt lat="45.55994" lon="2.80284">
        <ele>1450.2902215969</ele>
        <time>2019-09-29T08:27:23Z</time>
      </trkpt>
      <trkpt lat="45.55994" lon="2.80284">
        <ele>1450.020555663</ele>
        <time>2019-09-29T08:27:34Z</time>
      </trkpt>
      <trkpt lat="45.55993" lon="2.80281">
        <ele>1449.8922418336</ele>
        <time>2019-09-29T08:27:43Z</time>
      </trkpt>
      <trkpt lat="45.55992" lon="2.80282">
        <ele>1449.774103215</ele>
        <time>2019-09-29T08:27:56Z</time>
      </trkpt>
      <trkpt lat="45.55987" lon="2.80284">
        <ele>1449.4631307468</ele>
        <time>2019-09-29T08:28:06Z</time>
      </trkpt>
      <trkpt lat="45.55987" lon="2.80284">
        <ele>1449.2693754187</ele>
        <time>2019-09-29T08:28:21Z</time>
      </trkpt>
      <trkpt lat="45.55984" lon="2.80282">
        <ele>1448.9277308485</ele>
        <time>2019-09-29T08:28:30Z</time>
      </trkpt>
      <trkpt lat="45.55973" lon="2.80283">
        <ele>1448.6072718259</ele>
        <time>2019-09-29T08:28:39Z</time>
      </trkpt>
      <trkpt lat="45.55962" lon="2.80281">
        <ele>1448.2737740222</ele>
        <time>2019-09-29T08:28:49Z</time>
      </trkpt>
      <trkpt lat="45.55953" lon="2.80283">
        <ele>1448.0050088713</ele>
        <time>2019-09-29T08:28:58Z</time>
      </trkpt>
      <trkpt lat="45.55942" lon="2.80286">
        <ele>1447.7738734503</ele>
        <time>2019-09-29T08:29:07Z</time>
      </trkpt>
      <trkpt lat="45.55934" lon="2.80285">
        <ele>1447.5416543807</ele>
        <time>2019-09-29T08:29:16Z</time>
      </trkpt>
      <trkpt lat="45.55923" lon="2.80284">
        <ele>1447.2703504793</ele>
        <time>2019-09-29T08:29:26Z</time>
      </trkpt>
      <trkpt lat="45.55918" lon="2.80283">
        <ele>1447.0391867423</ele>
        <time>2019-09-29T08:29:35Z</time>
      </trkpt>
      <trkpt lat="45.55915" lon="2.80271">
        <ele>1446.7407063611</ele>
        <time>2019-09-29T08:29:45Z</time>
      </trkpt>
      <trkpt lat="45.55912" lon="2.80255">
        <ele>1446.4349939606</ele>
        <time>2019-09-29T08:29:54Z</time>
      </trkpt>
      <trkpt lat="45.55911" lon="2.80243">
        <ele>1446.104956029</ele>
        <time>2019-09-29T08:30:03Z</time>
      </trkpt>
      <trkpt lat="45.55911" lon="2.80231">
        <ele>1445.7385114905</ele>
        <time>2019-09-29T08:30:13Z</time>
      </trkpt>
      <trkpt lat="45.55909" lon="2.80218">
        <ele>1445.3706440877</ele>
        <time>2019-09-29T08:30:23Z</time>
      </trkpt>
      <trkpt lat="45.55906" lon="2.80208">
        <ele>1445.0339022477</ele>
        <time>2019-09-29T08:30:32Z</time>
      </trkpt>
      <trkpt lat="45.55902" lon="2.80199">
        <ele>1444.6783594713</ele>
        <time>2019-09-29T08:30:42Z</time>
      </trkpt>
      <trkpt lat="45.55901" lon="2.80192">
        <ele>1444.3783214765</ele>
        <time>2019-09-29T08:30:51Z</time>
      </trkpt>
      <trkpt lat="45.559" lon="2.80187">
        <ele>1444.0344611535</ele>
        <time>2019-09-29T08:31:00Z</time>
      </trkpt>
      <trkpt lat="45.55897" lon="2.80179">
        <ele>1443.7151867144</ele>
        <time>2019-09-29T08:31:09Z</time>
      </trkpt>
      <trkpt lat="45.55892" lon="2.80167">
        <ele>1443.39956318</ele>
        <time>2019-09-29T08:31:19Z</time>
      </trkpt>
      <trkpt lat="45.55886" lon="2.80154">
        <ele>1443.1519100008</ele>
        <time>2019-09-29T08:31:28Z</time>
      </trkpt>
      <trkpt lat="45.55881" lon="2.80142">
        <ele>1442.9378108767</ele>
        <time>2019-09-29T08:31:37Z</time>
      </trkpt>
      <trkpt lat="45.55878" lon="2.80131">
        <ele>1442.7250910857</ele>
        <time>2019-09-29T08:31:47Z</time>
      </trkpt>
      <trkpt lat="45.55882" lon="2.8013">
        <ele>1442.5379093055</ele>
        <time>2019-09-29T08:31:57Z</time>
      </trkpt>
      <trkpt lat="45.55886" lon="2.8013">
        <ele>1442.3532933664</ele>
        <time>2019-09-29T08:32:06Z</time>
      </trkpt>
      <trkpt lat="45.55891" lon="2.80124">
        <ele>1442.103863722</ele>
        <time>2019-09-29T08:32:16Z</time>
      </trkpt>
      <trkpt lat="45.55893" lon="2.8012">
        <ele>1442.0014994674</ele>
        <time>2019-09-29T08:32:25Z</time>
      </trkpt>
      <trkpt lat="45.55893" lon="2.80121">
        <ele>1441.8680311443</ele>
        <time>2019-09-29T08:32:58Z</time>
      </trkpt>
      <trkpt lat="45.55892" lon="2.80121">
        <ele>1441.7351366454</ele>
        <time>2019-09-29T08:33:07Z</time>
      </trkpt>
      <trkpt lat="45.55892" lon="2.8012">
        <ele>1441.5981620436</ele>
        <time>2019-09-29T08:33:19Z</time>
      </trkpt>
      <trkpt lat="45.55893" lon="2.80119">
        <ele>1441.4171775677</ele>
        <time>2019-09-29T08:33:31Z</time>
      </trkpt>
      <trkpt lat="45.559" lon="2.80114">
        <ele>1441.0372367876</ele>
        <time>2019-09-29T08:33:40Z</time>
      </trkpt>
      <trkpt lat="45.55912" lon="2.80114">
        <ele>1440.6331232856</ele>
        <time>2019-09-29T08:33:49Z</time>
      </trkpt>
      <trkpt lat="45.55916" lon="2.80121">
        <ele>1440.2772619275</ele>
        <time>2019-09-29T08:33:59Z</time>
      </trkpt>
      <trkpt lat="45.55917" lon="2.80121">
        <ele>1440.1559749453</ele>
        <time>2019-09-29T08:34:08Z</time>
      </trkpt>
      <trkpt lat="45.55926" lon="2.80106">
        <ele>1439.439610489</ele>
        <time>2019-09-29T08:34:18Z</time>
      </trkpt>
      <trkpt lat="45.55924" lon="2.80088">
        <ele>1438.7952798009</ele>
        <time>2019-09-29T08:34:28Z</time>
      </trkpt>
      <trkpt lat="45.55914" lon="2.80083">
        <ele>1438.3037356327</ele>
        <time>2019-09-29T08:34:37Z</time>
      </trkpt>
      <trkpt lat="45.55903" lon="2.8008">
        <ele>1437.8450896761</ele>
        <time>2019-09-29T08:34:47Z</time>
      </trkpt>
      <trkpt lat="45.55894" lon="2.80077">
        <ele>1437.4656246288</ele>
        <time>2019-09-29T08:34:57Z</time>
      </trkpt>
      <trkpt lat="45.55885" lon="2.80075">
        <ele>1437.1529785879</ele>
        <time>2019-09-29T08:35:07Z</time>
      </trkpt>
      <trkpt lat="45.55878" lon="2.80072">
        <ele>1436.9164210224</ele>
        <time>2019-09-29T08:35:16Z</time>
      </trkpt>
      <trkpt lat="45.55878" lon="2.80064">
        <ele>1436.6811470189</ele>
        <time>2019-09-29T08:35:26Z</time>
      </trkpt>
      <trkpt lat="45.5588" lon="2.80049">
        <ele>1436.2100812803</ele>
        <time>2019-09-29T08:35:36Z</time>
      </trkpt>
      <trkpt lat="45.55882" lon="2.80049">
        <ele>1435.8747893157</ele>
        <time>2019-09-29T08:35:45Z</time>
      </trkpt>
      <trkpt lat="45.55893" lon="2.80047">
        <ele>1435.428325869</ele>
        <time>2019-09-29T08:35:54Z</time>
      </trkpt>
      <trkpt lat="45.55904" lon="2.80045">
        <ele>1435.0000650366</ele>
        <time>2019-09-29T08:36:03Z</time>
      </trkpt>
      <trkpt lat="45.55911" lon="2.80045">
        <ele>1434.4903250398</ele>
        <time>2019-09-29T08:36:13Z</time>
      </trkpt>
      <trkpt lat="45.55919" lon="2.80043">
        <ele>1434.0685790519</ele>
        <time>2019-09-29T08:36:22Z</time>
      </trkpt>
      <trkpt lat="45.55929" lon="2.80047">
        <ele>1433.4145140954</ele>
        <time>2019-09-29T08:36:31Z</time>
      </trkpt>
      <trkpt lat="45.55932" lon="2.80047">
        <ele>1432.1107177481</ele>
        <time>2019-09-29T08:36:41Z</time>
      </trkpt>
      <trkpt lat="45.55936" lon="2.80047">
        <ele>1430.273322143</ele>
        <time>2019-09-29T08:36:51Z</time>
      </trkpt>
      <trkpt lat="45.55938" lon="2.80053">
        <ele>1428.6778265386</ele>
        <time>2019-09-29T08:37:00Z</time>
      </trkpt>
      <trkpt lat="45.55947" lon="2.80063">
        <ele>1427.1247539786</ele>
        <time>2019-09-29T08:37:09Z</time>
      </trkpt>
      <trkpt lat="45.55951" lon="2.80075">
        <ele>1425.5604528392</ele>
        <time>2019-09-29T08:37:19Z</time>
      </trkpt>
      <trkpt lat="45.55954" lon="2.80082">
        <ele>1423.8011469345</ele>
        <time>2019-09-29T08:37:29Z</time>
      </trkpt>
      <trkpt lat="45.55962" lon="2.80082">
        <ele>1422.4132988889</ele>
        <time>2019-09-29T08:37:39Z</time>
      </trkpt>
      <trkpt lat="45.55976" lon="2.80095">
        <ele>1420.9630809565</ele>
        <time>2019-09-29T08:37:48Z</time>
      </trkpt>
      <trkpt lat="45.55985" lon="2.80092">
        <ele>1419.5913862831</ele>
        <time>2019-09-29T08:37:57Z</time>
      </trkpt>
      <trkpt lat="45.56006" lon="2.80083">
        <ele>1417.9565267079</ele>
        <time>2019-09-29T08:38:07Z</time>
      </trkpt>
      <trkpt lat="45.56021" lon="2.80082">
        <ele>1416.5951039324</ele>
        <time>2019-09-29T08:38:16Z</time>
      </trkpt>
      <trkpt lat="45.56032" lon="2.80079">
        <ele>1415.3108005489</ele>
        <time>2019-09-29T08:38:25Z</time>
      </trkpt>
      <trkpt lat="45.56041" lon="2.80082">
        <ele>1414.0821543398</ele>
        <time>2019-09-29T08:38:34Z</time>
      </trkpt>
      <trkpt lat="45.56047" lon="2.80084">
        <ele>1412.8989705899</ele>
        <time>2019-09-29T08:38:43Z</time>
      </trkpt>
      <trkpt lat="45.56057" lon="2.80085">
        <ele>1411.8875264117</ele>
        <time>2019-09-29T08:38:52Z</time>
      </trkpt>
      <trkpt lat="45.56064" lon="2.80094">
        <ele>1410.7387062678</ele>
        <time>2019-09-29T08:39:02Z</time>
      </trkpt>
      <trkpt lat="45.56066" lon="2.80093">
        <ele>1409.6641700555</ele>
        <time>2019-09-29T08:39:12Z</time>
      </trkpt>
      <trkpt lat="45.56068" lon="2.80091">
        <ele>1408.6673347599</ele>
        <time>2019-09-29T08:39:21Z</time>
      </trkpt>
      <trkpt lat="45.56071" lon="2.80097">
        <ele>1407.4536673197</ele>
        <time>2019-09-29T08:39:31Z</time>
      </trkpt>
      <trkpt lat="45.5608" lon="2.80093">
        <ele>1406.1948363559</ele>
        <time>2019-09-29T08:39:40Z</time>
      </trkpt>
      <trkpt lat="45.56095" lon="2.80096">
        <ele>1405.0696953286</ele>
        <time>2019-09-29T08:39:49Z</time>
      </trkpt>
      <trkpt lat="45.56105" lon="2.80097">
        <ele>1403.9377497471</ele>
        <time>2019-09-29T08:39:58Z</time>
      </trkpt>
      <trkpt lat="45.56117" lon="2.80101">
        <ele>1402.9302289116</ele>
        <time>2019-09-29T08:40:07Z</time>
      </trkpt>
      <trkpt lat="45.56124" lon="2.80108">
        <ele>1402.1770994046</ele>
        <time>2019-09-29T08:40:16Z</time>
      </trkpt>
      <trkpt lat="45.56139" lon="2.8011">
        <ele>1401.3126718718</ele>
        <time>2019-09-29T08:40:26Z</time>
      </trkpt>
      <trkpt lat="45.56154" lon="2.80113">
        <ele>1400.2265867518</ele>
        <time>2019-09-29T08:40:36Z</time>
      </trkpt>
      <trkpt lat="45.56155" lon="2.80116">
        <ele>1399.2520118996</ele>
        <time>2019-09-29T08:40:46Z</time>
      </trkpt>
      <trkpt lat="45.56166" lon="2.80125">
        <ele>1398.3137983507</ele>
        <time>2019-09-29T08:40:56Z</time>
      </trkpt>
      <trkpt lat="45.56179" lon="2.80131">
        <ele>1397.1213515134</ele>
        <time>2019-09-29T08:41:05Z</time>
      </trkpt>
      <trkpt lat="45.56189" lon="2.80126">
        <ele>1396.0004314423</ele>
        <time>2019-09-29T08:41:15Z</time>
      </trkpt>
      <trkpt lat="45.56196" lon="2.80131">
        <ele>1395.0081778741</ele>
        <time>2019-09-29T08:41:24Z</time>
      </trkpt>
      <trkpt lat="45.56199" lon="2.80139">
        <ele>1393.5181130549</ele>
        <time>2019-09-29T08:41:34Z</time>
      </trkpt>
      <trkpt lat="45.56209" lon="2.80139">
        <ele>1392.138179247</ele>
        <time>2019-09-29T08:41:43Z</time>
      </trkpt>
      <trkpt lat="45.56224" lon="2.80141">
        <ele>1391.1513158803</ele>
        <time>2019-09-29T08:41:52Z</time>
      </trkpt>
      <trkpt lat="45.56236" lon="2.80127">
        <ele>1389.8280220216</ele>
        <time>2019-09-29T08:42:01Z</time>
      </trkpt>
      <trkpt lat="45.56262" lon="2.80124">
        <ele>1387.8295168919</ele>
        <time>2019-09-29T08:42:11Z</time>
      </trkpt>
      <trkpt lat="45.56272" lon="2.80123">
        <ele>1385.5600396374</ele>
        <time>2019-09-29T08:42:21Z</time>
      </trkpt>
      <trkpt lat="45.56278" lon="2.80123">
        <ele>1383.6623889529</ele>
        <time>2019-09-29T08:42:30Z</time>
      </trkpt>
      <trkpt lat="45.56287" lon="2.80125">
        <ele>1381.941526261</ele>
        <time>2019-09-29T08:42:40Z</time>
      </trkpt>
      <trkpt lat="45.56294" lon="2.80127">
        <ele>1380.1507654136</ele>
        <time>2019-09-29T08:42:50Z</time>
      </trkpt>
      <trkpt lat="45.56301" lon="2.80138">
        <ele>1378.4455534232</ele>
        <time>2019-09-29T08:43:00Z</time>
      </trkpt>
      <trkpt lat="45.56308" lon="2.8014">
        <ele>1376.9174947445</ele>
        <time>2019-09-29T08:43:10Z</time>
      </trkpt>
      <trkpt lat="45.56314" lon="2.80139">
        <ele>1375.3982221162</ele>
        <time>2019-09-29T08:43:20Z</time>
      </trkpt>
      <trkpt lat="45.56323" lon="2.80148">
        <ele>1373.9226266845</ele>
        <time>2019-09-29T08:43:29Z</time>
      </trkpt>
      <trkpt lat="45.56334" lon="2.80152">
        <ele>1372.6226434786</ele>
        <time>2019-09-29T08:43:38Z</time>
      </trkpt>
      <trkpt lat="45.56343" lon="2.80156">
        <ele>1371.2163248524</ele>
        <time>2019-09-29T08:43:47Z</time>
      </trkpt>
      <trkpt lat="45.56348" lon="2.80166">
        <ele>1369.8828994507</ele>
        <time>2019-09-29T08:43:56Z</time>
      </trkpt>
      <trkpt lat="45.56355" lon="2.80175">
        <ele>1368.5170268397</ele>
        <time>2019-09-29T08:44:06Z</time>
      </trkpt>
      <trkpt lat="45.56364" lon="2.80188">
        <ele>1367.2593286388</ele>
        <time>2019-09-29T08:44:16Z</time>
      </trkpt>
      <trkpt lat="45.56367" lon="2.80194">
        <ele>1366.4090500891</ele>
        <time>2019-09-29T08:44:25Z</time>
      </trkpt>
      <trkpt lat="45.56373" lon="2.802">
        <ele>1365.3220208523</ele>
        <time>2019-09-29T08:44:35Z</time>
      </trkpt>
      <trkpt lat="45.56379" lon="2.80212">
        <ele>1364.3258829873</ele>
        <time>2019-09-29T08:44:44Z</time>
      </trkpt>
      <trkpt lat="45.56382" lon="2.80217">
        <ele>1363.3333215275</ele>
        <time>2019-09-29T08:44:53Z</time>
      </trkpt>
      <trkpt lat="45.56392" lon="2.80224">
        <ele>1362.3197701606</ele>
        <time>2019-09-29T08:45:03Z</time>
      </trkpt>
      <trkpt lat="45.56401" lon="2.80232">
        <ele>1361.2215377951</ele>
        <time>2019-09-29T08:45:13Z</time>
      </trkpt>
      <trkpt lat="45.56407" lon="2.80235">
        <ele>1360.4122622603</ele>
        <time>2019-09-29T08:45:22Z</time>
      </trkpt>
      <trkpt lat="45.56413" lon="2.80242">
        <ele>1359.5199910724</ele>
        <time>2019-09-29T08:45:31Z</time>
      </trkpt>
      <trkpt lat="45.5642" lon="2.80247">
        <ele>1358.6274766464</ele>
        <time>2019-09-29T08:45:40Z</time>
      </trkpt>
      <trkpt lat="45.5643" lon="2.80248">
        <ele>1357.8448982933</ele>
        <time>2019-09-29T08:45:49Z</time>
      </trkpt>
      <trkpt lat="45.56434" lon="2.80246">
        <ele>1356.986881598</ele>
        <time>2019-09-29T08:45:59Z</time>
      </trkpt>
      <trkpt lat="45.56441" lon="2.80244">
        <ele>1356.076185602</ele>
        <time>2019-09-29T08:46:09Z</time>
      </trkpt>
      <trkpt lat="45.56446" lon="2.80244">
        <ele>1355.214851306</ele>
        <time>2019-09-29T08:46:19Z</time>
      </trkpt>
      <trkpt lat="45.56448" lon="2.8025">
        <ele>1354.4754184273</ele>
        <time>2019-09-29T08:46:28Z</time>
      </trkpt>
      <trkpt lat="45.56456" lon="2.80251">
        <ele>1353.7978397155</ele>
        <time>2019-09-29T08:46:37Z</time>
      </trkpt>
      <trkpt lat="45.56461" lon="2.80255">
        <ele>1353.1587673092</ele>
        <time>2019-09-29T08:46:46Z</time>
      </trkpt>
      <trkpt lat="45.56462" lon="2.80257">
        <ele>1352.5356274599</ele>
        <time>2019-09-29T08:46:55Z</time>
      </trkpt>
      <trkpt lat="45.56466" lon="2.80256">
        <ele>1351.8783509559</ele>
        <time>2019-09-29T08:47:04Z</time>
      </trkpt>
      <trkpt lat="45.56474" lon="2.8026">
        <ele>1350.9492508068</ele>
        <time>2019-09-29T08:47:14Z</time>
      </trkpt>
      <trkpt lat="45.56483" lon="2.8027">
        <ele>1349.8879328633</ele>
        <time>2019-09-29T08:47:24Z</time>
      </trkpt>
      <trkpt lat="45.56499" lon="2.80279">
        <ele>1349.0624585412</ele>
        <time>2019-09-29T08:47:33Z</time>
      </trkpt>
      <trkpt lat="45.56507" lon="2.80286">
        <ele>1348.2313752103</ele>
        <time>2019-09-29T08:47:42Z</time>
      </trkpt>
      <trkpt lat="45.56514" lon="2.80289">
        <ele>1347.4374681535</ele>
        <time>2019-09-29T08:47:52Z</time>
      </trkpt>
      <trkpt lat="45.56522" lon="2.80292">
        <ele>1346.8189698765</ele>
        <time>2019-09-29T08:48:01Z</time>
      </trkpt>
      <trkpt lat="45.56527" lon="2.80291">
        <ele>1346.191942184</ele>
        <time>2019-09-29T08:48:10Z</time>
      </trkpt>
      <trkpt lat="45.56534" lon="2.80287">
        <ele>1345.4089390214</ele>
        <time>2019-09-29T08:48:20Z</time>
      </trkpt>
      <trkpt lat="45.56542" lon="2.8028">
        <ele>1344.6145286159</ele>
        <time>2019-09-29T08:48:29Z</time>
      </trkpt>
      <trkpt lat="45.56554" lon="2.80267">
        <ele>1343.8243666712</ele>
        <time>2019-09-29T08:48:38Z</time>
      </trkpt>
      <trkpt lat="45.56563" lon="2.80258">
        <ele>1343.1716345653</ele>
        <time>2019-09-29T08:48:47Z</time>
      </trkpt>
      <trkpt lat="45.56566" lon="2.80257">
        <ele>1342.7414619999</ele>
        <time>2019-09-29T08:48:56Z</time>
      </trkpt>
      <trkpt lat="45.56577" lon="2.80261">
        <ele>1341.8185859531</ele>
        <time>2019-09-29T08:49:05Z</time>
      </trkpt>
      <trkpt lat="45.56583" lon="2.80255">
        <ele>1340.910554498</ele>
        <time>2019-09-29T08:49:15Z</time>
      </trkpt>
      <trkpt lat="45.56589" lon="2.80251">
        <ele>1340.1422113775</ele>
        <time>2019-09-29T08:49:24Z</time>
      </trkpt>
      <trkpt lat="45.56597" lon="2.80249">
        <ele>1339.3805602612</ele>
        <time>2019-09-29T08:49:33Z</time>
      </trkpt>
      <trkpt lat="45.56608" lon="2.8024">
        <ele>1338.5456221925</ele>
        <time>2019-09-29T08:49:43Z</time>
      </trkpt>
      <trkpt lat="45.56622" lon="2.80247">
        <ele>1337.7166083489</ele>
        <time>2019-09-29T08:49:52Z</time>
      </trkpt>
      <trkpt lat="45.56622" lon="2.80242">
        <ele>1336.9870103714</ele>
        <time>2019-09-29T08:50:02Z</time>
      </trkpt>
      <trkpt lat="45.56626" lon="2.80241">
        <ele>1336.4147724423</ele>
        <time>2019-09-29T08:50:11Z</time>
      </trkpt>
      <trkpt lat="45.56634" lon="2.8024">
        <ele>1335.3352322716</ele>
        <time>2019-09-29T08:50:21Z</time>
      </trkpt>
      <trkpt lat="45.56642" lon="2.80235">
        <ele>1334.4938673679</ele>
        <time>2019-09-29T08:50:31Z</time>
      </trkpt>
      <trkpt lat="45.56665" lon="2.80224">
        <ele>1333.3597931882</ele>
        <time>2019-09-29T08:50:40Z</time>
      </trkpt>
      <trkpt lat="45.56672" lon="2.80231">
        <ele>1332.3128266506</ele>
        <time>2019-09-29T08:50:50Z</time>
      </trkpt>
      <trkpt lat="45.56671" lon="2.80232">
        <ele>1331.3779037135</ele>
        <time>2019-09-29T08:50:59Z</time>
      </trkpt>
      <trkpt lat="45.56674" lon="2.80229">
        <ele>1330.1905376</ele>
        <time>2019-09-29T08:51:09Z</time>
      </trkpt>
      <trkpt lat="45.56675" lon="2.80227">
        <ele>1329.1232809846</ele>
        <time>2019-09-29T08:51:18Z</time>
      </trkpt>
      <trkpt lat="45.56676" lon="2.80222">
        <ele>1327.9458767919</ele>
        <time>2019-09-29T08:51:27Z</time>
      </trkpt>
      <trkpt lat="45.5668" lon="2.80218">
        <ele>1326.8837092871</ele>
        <time>2019-09-29T08:51:36Z</time>
      </trkpt>
      <trkpt lat="45.56695" lon="2.80219">
        <ele>1325.6821544875</ele>
        <time>2019-09-29T08:51:45Z</time>
      </trkpt>
      <trkpt lat="45.56715" lon="2.80225">
        <ele>1324.5495516903</ele>
        <time>2019-09-29T08:51:54Z</time>
      </trkpt>
      <trkpt lat="45.56726" lon="2.80219">
        <ele>1323.151463128</ele>
        <time>2019-09-29T08:52:04Z</time>
      </trkpt>
      <trkpt lat="45.56731" lon="2.80218">
        <ele>1322.3438604656</ele>
        <time>2019-09-29T08:52:13Z</time>
      </trkpt>
      <trkpt lat="45.56748" lon="2.80219">
        <ele>1320.9628609697</ele>
        <time>2019-09-29T08:52:22Z</time>
      </trkpt>
      <trkpt lat="45.56765" lon="2.80229">
        <ele>1319.4848847687</ele>
        <time>2019-09-29T08:52:31Z</time>
      </trkpt>
      <trkpt lat="45.56772" lon="2.80237">
        <ele>1317.9585069389</ele>
        <time>2019-09-29T08:52:40Z</time>
      </trkpt>
      <trkpt lat="45.56779" lon="2.80244">
        <ele>1316.1418067111</ele>
        <time>2019-09-29T08:52:50Z</time>
      </trkpt>
      <trkpt lat="45.56788" lon="2.80247">
        <ele>1314.4814467443</ele>
        <time>2019-09-29T08:53:00Z</time>
      </trkpt>
      <trkpt lat="45.56794" lon="2.80255">
        <ele>1313.0757923193</ele>
        <time>2019-09-29T08:53:09Z</time>
      </trkpt>
      <trkpt lat="45.56803" lon="2.80261">
        <ele>1311.722110681</ele>
        <time>2019-09-29T08:53:18Z</time>
      </trkpt>
      <trkpt lat="45.56814" lon="2.80258">
        <ele>1310.3560893229</ele>
        <time>2019-09-29T08:53:27Z</time>
      </trkpt>
      <trkpt lat="45.56825" lon="2.80262">
        <ele>1308.8962022186</ele>
        <time>2019-09-29T08:53:37Z</time>
      </trkpt>
      <trkpt lat="45.56836" lon="2.80266">
        <ele>1307.5110089419</ele>
        <time>2019-09-29T08:53:46Z</time>
      </trkpt>
      <trkpt lat="45.56845" lon="2.80263">
        <ele>1306.210032286</ele>
        <time>2019-09-29T08:53:55Z</time>
      </trkpt>
      <trkpt lat="45.56853" lon="2.80263">
        <ele>1305.103044848</ele>
        <time>2019-09-29T08:54:04Z</time>
      </trkpt>
      <trkpt lat="45.56864" lon="2.80265">
        <ele>1303.8606867079</ele>
        <time>2019-09-29T08:54:14Z</time>
      </trkpt>
      <trkpt lat="45.5687" lon="2.80263">
        <ele>1302.8155072</ele>
        <time>2019-09-29T08:54:24Z</time>
      </trkpt>
      <trkpt lat="45.56876" lon="2.80264">
        <ele>1301.8796836111</ele>
        <time>2019-09-29T08:54:33Z</time>
      </trkpt>
      <trkpt lat="45.56887" lon="2.8026">
        <ele>1300.9514632431</ele>
        <time>2019-09-29T08:54:43Z</time>
      </trkpt>
      <trkpt lat="45.56896" lon="2.80261">
        <ele>1300.015252194</ele>
        <time>2019-09-29T08:54:52Z</time>
      </trkpt>
      <trkpt lat="45.56899" lon="2.80262">
        <ele>1299.2329652131</ele>
        <time>2019-09-29T08:55:01Z</time>
      </trkpt>
      <trkpt lat="45.569" lon="2.8026">
        <ele>1298.755628196</ele>
        <time>2019-09-29T08:55:10Z</time>
      </trkpt>
      <trkpt lat="45.56902" lon="2.80262">
        <ele>1297.7975933081</ele>
        <time>2019-09-29T08:55:19Z</time>
      </trkpt>
      <trkpt lat="45.56906" lon="2.8027">
        <ele>1297.0187956766</ele>
        <time>2019-09-29T08:55:28Z</time>
      </trkpt>
      <trkpt lat="45.56917" lon="2.80274">
        <ele>1295.9494606854</ele>
        <time>2019-09-29T08:55:37Z</time>
      </trkpt>
      <trkpt lat="45.56922" lon="2.80286">
        <ele>1295.236080229</ele>
        <time>2019-09-29T08:55:46Z</time>
      </trkpt>
      <trkpt lat="45.56917" lon="2.80297">
        <ele>1294.179397178</ele>
        <time>2019-09-29T08:55:55Z</time>
      </trkpt>
      <trkpt lat="45.56917" lon="2.80305">
        <ele>1293.1878039054</ele>
        <time>2019-09-29T08:56:05Z</time>
      </trkpt>
      <trkpt lat="45.56911" lon="2.80336">
        <ele>1292.1899453632</ele>
        <time>2019-09-29T08:56:15Z</time>
      </trkpt>
      <trkpt lat="45.56905" lon="2.80352">
        <ele>1291.3016498457</ele>
        <time>2019-09-29T08:56:25Z</time>
      </trkpt>
      <trkpt lat="45.5689" lon="2.80365">
        <ele>1290.490787881</ele>
        <time>2019-09-29T08:56:34Z</time>
      </trkpt>
      <trkpt lat="45.56878" lon="2.80375">
        <ele>1289.6313506201</ele>
        <time>2019-09-29T08:56:44Z</time>
      </trkpt>
      <trkpt lat="45.5687" lon="2.80381">
        <ele>1288.8964346782</ele>
        <time>2019-09-29T08:56:53Z</time>
      </trkpt>
      <trkpt lat="45.56861" lon="2.8039">
        <ele>1288.1960423229</ele>
        <time>2019-09-29T08:57:02Z</time>
      </trkpt>
      <trkpt lat="45.56854" lon="2.80397">
        <ele>1287.4255463085</ele>
        <time>2019-09-29T08:57:12Z</time>
      </trkpt>
      <trkpt lat="45.56848" lon="2.80408">
        <ele>1286.6886452666</ele>
        <time>2019-09-29T08:57:22Z</time>
      </trkpt>
      <trkpt lat="45.56842" lon="2.80422">
        <ele>1286.021627572</ele>
        <time>2019-09-29T08:57:31Z</time>
      </trkpt>
      <trkpt lat="45.56842" lon="2.80449">
        <ele>1285.191116405</ele>
        <time>2019-09-29T08:57:41Z</time>
      </trkpt>
      <trkpt lat="45.56838" lon="2.80458">
        <ele>1284.3536459856</ele>
        <time>2019-09-29T08:57:50Z</time>
      </trkpt>
      <trkpt lat="45.56839" lon="2.80472">
        <ele>1283.4399765622</ele>
        <time>2019-09-29T08:58:00Z</time>
      </trkpt>
      <trkpt lat="45.56835" lon="2.80482">
        <ele>1282.6270955853</ele>
        <time>2019-09-29T08:58:10Z</time>
      </trkpt>
      <trkpt lat="45.56838" lon="2.80469">
        <ele>1282.0857880707</ele>
        <time>2019-09-29T08:58:19Z</time>
      </trkpt>
      <trkpt lat="45.56837" lon="2.80469">
        <ele>1281.7770923487</ele>
        <time>2019-09-29T08:58:28Z</time>
      </trkpt>
      <trkpt lat="45.5684" lon="2.80465">
        <ele>1280.8817778834</ele>
        <time>2019-09-29T08:58:38Z</time>
      </trkpt>
      <trkpt lat="45.56842" lon="2.8048">
        <ele>1279.8554355886</ele>
        <time>2019-09-29T08:58:47Z</time>
      </trkpt>
      <trkpt lat="45.56844" lon="2.80482">
        <ele>1279.4103562258</ele>
        <time>2019-09-29T08:58:56Z</time>
      </trkpt>
      <trkpt lat="45.56844" lon="2.80471">
        <ele>1278.8079735733</ele>
        <time>2019-09-29T08:59:05Z</time>
      </trkpt>
      <trkpt lat="45.56846" lon="2.80463">
        <ele>1277.9513472402</ele>
        <time>2019-09-29T08:59:14Z</time>
      </trkpt>
      <trkpt lat="45.56845" lon="2.80465">
        <ele>1277.6690905979</ele>
        <time>2019-09-29T08:59:24Z</time>
      </trkpt>
      <trkpt lat="45.56845" lon="2.80465">
        <ele>1276.5656238368</ele>
        <time>2019-09-29T08:59:36Z</time>
      </trkpt>
      <trkpt lat="45.56848" lon="2.80463">
        <ele>1275.673596938</ele>
        <time>2019-09-29T08:59:46Z</time>
      </trkpt>
      <trkpt lat="45.56849" lon="2.80462">
        <ele>1275.2921289559</ele>
        <time>2019-09-29T08:59:55Z</time>
      </trkpt>
      <trkpt lat="45.56851" lon="2.80462">
        <ele>1275.0231529806</ele>
        <time>2019-09-29T09:00:05Z</time>
      </trkpt>
      <trkpt lat="45.56852" lon="2.80462">
        <ele>1274.3276345361</ele>
        <time>2019-09-29T09:00:19Z</time>
      </trkpt>
      <trkpt lat="45.56854" lon="2.80462">
        <ele>1274.0867061644</ele>
        <time>2019-09-29T09:00:28Z</time>
      </trkpt>
      <trkpt lat="45.56855" lon="2.80462">
        <ele>1273.9616016066</ele>
        <time>2019-09-29T09:00:37Z</time>
      </trkpt>
      <trkpt lat="45.56858" lon="2.80461">
        <ele>1273.5748579619</ele>
        <time>2019-09-29T09:00:46Z</time>
      </trkpt>
      <trkpt lat="45.56857" lon="2.80462">
        <ele>1273.4144770378</ele>
        <time>2019-09-29T09:00:57Z</time>
      </trkpt>
      <trkpt lat="45.56857" lon="2.80462">
        <ele>1273.2456191541</ele>
        <time>2019-09-29T09:01:08Z</time>
      </trkpt>
      <trkpt lat="45.56856" lon="2.80463">
        <ele>1272.9475924006</ele>
        <time>2019-09-29T09:01:18Z</time>
      </trkpt>
      <trkpt lat="45.56855" lon="2.80462">
        <ele>1272.174895824</ele>
        <time>2019-09-29T09:01:33Z</time>
      </trkpt>
      <trkpt lat="45.56856" lon="2.80461">
        <ele>1272.0285946141</ele>
        <time>2019-09-29T09:01:43Z</time>
      </trkpt>
      <trkpt lat="45.56853" lon="2.80462">
        <ele>1271.6252505301</ele>
        <time>2019-09-29T09:01:53Z</time>
      </trkpt>
      <trkpt lat="45.56853" lon="2.80462">
        <ele>1271.3292528117</ele>
        <time>2019-09-29T09:02:04Z</time>
      </trkpt>
      <trkpt lat="45.56849" lon="2.80472">
        <ele>1270.1076553172</ele>
        <time>2019-09-29T09:02:13Z</time>
      </trkpt>
      <trkpt lat="45.56843" lon="2.80476">
        <ele>1269.4640943351</ele>
        <time>2019-09-29T09:02:22Z</time>
      </trkpt>
      <trkpt lat="45.56843" lon="2.80475">
        <ele>1269.2829774514</ele>
        <time>2019-09-29T09:02:37Z</time>
      </trkpt>
      <trkpt lat="45.56842" lon="2.80474">
        <ele>1269.0296730167</ele>
        <time>2019-09-29T09:02:47Z</time>
      </trkpt>
      <trkpt lat="45.56841" lon="2.80474">
        <ele>1268.8313310513</ele>
        <time>2019-09-29T09:03:02Z</time>
      </trkpt>
      <trkpt lat="45.56841" lon="2.80473">
        <ele>1268.4042690515</ele>
        <time>2019-09-29T09:03:32Z</time>
      </trkpt>
      <trkpt lat="45.5684" lon="2.80473">
        <ele>1268.046067931</ele>
        <time>2019-09-29T09:03:53Z</time>
      </trkpt>
      <trkpt lat="45.56839" lon="2.80472">
        <ele>1266.2646833335</ele>
        <time>2019-09-29T09:04:18Z</time>
      </trkpt>
      <trkpt lat="45.56837" lon="2.80474">
        <ele>1265.3990696501</ele>
        <time>2019-09-29T09:04:28Z</time>
      </trkpt>
      <trkpt lat="45.56837" lon="2.80473">
        <ele>1265.1958110158</ele>
        <time>2019-09-29T09:04:41Z</time>
      </trkpt>
      <trkpt lat="45.56838" lon="2.80472">
        <ele>1264.8387033803</ele>
        <time>2019-09-29T09:04:54Z</time>
      </trkpt>
      <trkpt lat="45.56838" lon="2.80471">
        <ele>1264.5084587246</ele>
        <time>2019-09-29T09:05:06Z</time>
      </trkpt>
      <trkpt lat="45.56838" lon="2.8047">
        <ele>1264.3531804877</ele>
        <time>2019-09-29T09:05:16Z</time>
      </trkpt>
      <trkpt lat="45.56839" lon="2.8047">
        <ele>1263.9196447274</ele>
        <time>2019-09-29T09:05:35Z</time>
      </trkpt>
      <trkpt lat="45.56841" lon="2.8047">
        <ele>1262.9959017436</ele>
        <time>2019-09-29T09:05:44Z</time>
      </trkpt>
      <trkpt lat="45.56841" lon="2.80469">
        <ele>1262.3835614818</ele>
        <time>2019-09-29T09:06:21Z</time>
      </trkpt>
      <trkpt lat="45.56842" lon="2.80469">
        <ele>1262.0428264623</ele>
        <time>2019-09-29T09:06:30Z</time>
      </trkpt>
      <trkpt lat="45.56839" lon="2.8047">
        <ele>1261.7072069065</ele>
        <time>2019-09-29T09:06:39Z</time>
      </trkpt>
      <trkpt lat="45.56839" lon="2.8047">
        <ele>1261.4743390061</ele>
        <time>2019-09-29T09:06:49Z</time>
      </trkpt>
      <trkpt lat="45.56838" lon="2.80466">
        <ele>1261.3498169249</ele>
        <time>2019-09-29T09:06:59Z</time>
      </trkpt>
      <trkpt lat="45.56837" lon="2.80464">
        <ele>1261.0144676226</ele>
        <time>2019-09-29T09:07:08Z</time>
      </trkpt>
      <trkpt lat="45.56838" lon="2.80465">
        <ele>1260.8196526511</ele>
        <time>2019-09-29T09:07:23Z</time>
      </trkpt>
      <trkpt lat="45.56839" lon="2.80463">
        <ele>1260.353917953</ele>
        <time>2019-09-29T09:07:32Z</time>
      </trkpt>
      <trkpt lat="45.5684" lon="2.80463">
        <ele>1260.2395945268</ele>
        <time>2019-09-29T09:07:41Z</time>
      </trkpt>
      <trkpt lat="45.56837" lon="2.80463">
        <ele>1259.9001412901</ele>
        <time>2019-09-29T09:07:50Z</time>
      </trkpt>
      <trkpt lat="45.56835" lon="2.80463">
        <ele>1259.5699155073</ele>
        <time>2019-09-29T09:07:59Z</time>
      </trkpt>
      <trkpt lat="45.56834" lon="2.80464">
        <ele>1259.2469418169</ele>
        <time>2019-09-29T09:08:25Z</time>
      </trkpt>
      <trkpt lat="45.56834" lon="2.80465">
        <ele>1258.9864885102</ele>
        <time>2019-09-29T09:08:45Z</time>
      </trkpt>
      <trkpt lat="45.56834" lon="2.80466">
        <ele>1258.5076333324</ele>
        <time>2019-09-29T09:09:14Z</time>
      </trkpt>
      <trkpt lat="45.56833" lon="2.80466">
        <ele>1257.9750342815</ele>
        <time>2019-09-29T09:09:24Z</time>
      </trkpt>
      <trkpt lat="45.56833" lon="2.80465">
        <ele>1257.5291667077</ele>
        <time>2019-09-29T09:09:57Z</time>
      </trkpt>
      <trkpt lat="45.56833" lon="2.80464">
        <ele>1257.1382192801</ele>
        <time>2019-09-29T09:10:34Z</time>
      </trkpt>
      <trkpt lat="45.56833" lon="2.80464">
        <ele>1256.6779061761</ele>
        <time>2019-09-29T09:11:11Z</time>
      </trkpt>
      <trkpt lat="45.56834" lon="2.80466">
        <ele>1256.5864363458</ele>
        <time>2019-09-29T09:11:20Z</time>
      </trkpt>
      <trkpt lat="45.56832" lon="2.80465">
        <ele>1256.3066256292</ele>
        <time>2019-09-29T09:11:30Z</time>
      </trkpt>
      <trkpt lat="45.56832" lon="2.80466">
        <ele>1255.6837230834</ele>
        <time>2019-09-29T09:12:08Z</time>
      </trkpt>
      <trkpt lat="45.56832" lon="2.80467">
        <ele>1255.426375299</ele>
        <time>2019-09-29T09:12:28Z</time>
      </trkpt>
      <trkpt lat="45.56832" lon="2.80468">
        <ele>1255.104740662</ele>
        <time>2019-09-29T09:12:48Z</time>
      </trkpt>
      <trkpt lat="45.56833" lon="2.80469">
        <ele>1254.8897647674</ele>
        <time>2019-09-29T09:12:57Z</time>
      </trkpt>
      <trkpt lat="45.56834" lon="2.80469">
        <ele>1254.459859403</ele>
        <time>2019-09-29T09:13:48Z</time>
      </trkpt>
      <trkpt lat="45.56835" lon="2.80469">
        <ele>1254.265873516</ele>
        <time>2019-09-29T09:14:11Z</time>
      </trkpt>
      <trkpt lat="45.56834" lon="2.80468">
        <ele>1253.7516307395</ele>
        <time>2019-09-29T09:15:12Z</time>
      </trkpt>
      <trkpt lat="45.56834" lon="2.80468">
        <ele>1253.1879741903</ele>
        <time>2019-09-29T09:16:10Z</time>
      </trkpt>
      <trkpt lat="45.56833" lon="2.80468">
        <ele>1253.0860103938</ele>
        <time>2019-09-29T09:16:28Z</time>
      </trkpt>
      <trkpt lat="45.56833" lon="2.80467">
        <ele>1252.8970825577</ele>
        <time>2019-09-29T09:17:02Z</time>
      </trkpt>
      <trkpt lat="45.56834" lon="2.80467">
        <ele>1252.3524699161</ele>
        <time>2019-09-29T09:18:21Z</time>
      </trkpt>
      <trkpt lat="45.56844" lon="2.80459">
        <ele>1251.8828949831</ele>
        <time>2019-09-29T09:18:31Z</time>
      </trkpt>
      <trkpt lat="45.56845" lon="2.8046">
        <ele>1251.3864701249</ele>
        <time>2019-09-29T09:18:34Z</time>
      </trkpt>
      <trkpt lat="45.56817" lon="2.8044">
        <ele>1249.7447092215</ele>
        <time>2019-09-29T09:19:17Z</time>
      </trkpt>
      <trkpt lat="45.56807" lon="2.80454">
        <ele>1249.7425966325</ele>
        <time>2019-09-29T09:19:26Z</time>
      </trkpt>
      <trkpt lat="45.5683" lon="2.80474">
        <ele>1249.7452761027</ele>
        <time>2019-09-29T09:19:35Z</time>
      </trkpt>
      <trkpt lat="45.56831" lon="2.80473">
        <ele>1249.7545080362</ele>
        <time>2019-09-29T09:19:45Z</time>
      </trkpt>
      <trkpt lat="45.56831" lon="2.80473">
        <ele>1249.7740676444</ele>
        <time>2019-09-29T09:19:55Z</time>
      </trkpt>
      <trkpt lat="45.56838" lon="2.80481">
        <ele>1249.8392808744</ele>
        <time>2019-09-29T09:20:05Z</time>
      </trkpt>
      <trkpt lat="45.56841" lon="2.80484">
        <ele>1249.8740578374</ele>
        <time>2019-09-29T09:20:15Z</time>
      </trkpt>
      <trkpt lat="45.56845" lon="2.80484">
        <ele>1249.9003149157</ele>
        <time>2019-09-29T09:20:24Z</time>
      </trkpt>
      <trkpt lat="45.56846" lon="2.80485">
        <ele>1249.9121724641</ele>
        <time>2019-09-29T09:20:34Z</time>
      </trkpt>
      <trkpt lat="45.56855" lon="2.8049">
        <ele>1250.0025382896</ele>
        <time>2019-09-29T09:20:44Z</time>
      </trkpt>
      <trkpt lat="45.56867" lon="2.80496">
        <ele>1249.9958496161</ele>
        <time>2019-09-29T09:20:53Z</time>
      </trkpt>
      <trkpt lat="45.56871" lon="2.80492">
        <ele>1249.9883427861</ele>
        <time>2019-09-29T09:21:03Z</time>
      </trkpt>
      <trkpt lat="45.56872" lon="2.80495">
        <ele>1249.9695419944</ele>
        <time>2019-09-29T09:21:12Z</time>
      </trkpt>
      <trkpt lat="45.56876" lon="2.80502">
        <ele>1249.970770769</ele>
        <time>2019-09-29T09:21:22Z</time>
      </trkpt>
      <trkpt lat="45.5687" lon="2.80503">
        <ele>1249.9922411815</ele>
        <time>2019-09-29T09:21:31Z</time>
      </trkpt>
      <trkpt lat="45.56868" lon="2.80499">
        <ele>1250.0452336519</ele>
        <time>2019-09-29T09:21:40Z</time>
      </trkpt>
      <trkpt lat="45.56867" lon="2.80493">
        <ele>1250.1018658265</ele>
        <time>2019-09-29T09:21:49Z</time>
      </trkpt>
      <trkpt lat="45.5686" lon="2.80501">
        <ele>1250.1803814432</ele>
        <time>2019-09-29T09:21:58Z</time>
      </trkpt>
      <trkpt lat="45.56865" lon="2.805">
        <ele>1250.232017928</ele>
        <time>2019-09-29T09:22:07Z</time>
      </trkpt>
      <trkpt lat="45.56866" lon="2.80501">
        <ele>1250.3008258094</ele>
        <time>2019-09-29T09:22:16Z</time>
      </trkpt>
      <trkpt lat="45.56871" lon="2.80502">
        <ele>1250.3474116265</ele>
        <time>2019-09-29T09:22:25Z</time>
      </trkpt>
      <trkpt lat="45.56874" lon="2.80504">
        <ele>1250.3241165555</ele>
        <time>2019-09-29T09:22:35Z</time>
      </trkpt>
      <trkpt lat="45.56878" lon="2.80509">
        <ele>1250.2954690219</ele>
        <time>2019-09-29T09:22:44Z</time>
      </trkpt>
      <trkpt lat="45.56886" lon="2.80523">
        <ele>1250.2037780953</ele>
        <time>2019-09-29T09:22:53Z</time>
      </trkpt>
      <trkpt lat="45.56889" lon="2.80531">
        <ele>1250.1109571683</ele>
        <time>2019-09-29T09:23:03Z</time>
      </trkpt>
      <trkpt lat="45.56897" lon="2.80546">
        <ele>1250.0278785883</ele>
        <time>2019-09-29T09:23:12Z</time>
      </trkpt>
      <trkpt lat="45.56904" lon="2.80555">
        <ele>1249.961035776</ele>
        <time>2019-09-29T09:23:22Z</time>
      </trkpt>
      <trkpt lat="45.56908" lon="2.80561">
        <ele>1249.9380926721</ele>
        <time>2019-09-29T09:23:31Z</time>
      </trkpt>
      <trkpt lat="45.56914" lon="2.8057">
        <ele>1249.9458431671</ele>
        <time>2019-09-29T09:23:41Z</time>
      </trkpt>
      <trkpt lat="45.56921" lon="2.80581">
        <ele>1249.8993637274</ele>
        <time>2019-09-29T09:23:51Z</time>
      </trkpt>
      <trkpt lat="45.56926" lon="2.80594">
        <ele>1249.8189240765</ele>
        <time>2019-09-29T09:24:00Z</time>
      </trkpt>
      <trkpt lat="45.5693" lon="2.80598">
        <ele>1249.7242055449</ele>
        <time>2019-09-29T09:24:09Z</time>
      </trkpt>
      <trkpt lat="45.56935" lon="2.80609">
        <ele>1249.5881318619</ele>
        <time>2019-09-29T09:24:18Z</time>
      </trkpt>
      <trkpt lat="45.5694" lon="2.80617">
        <ele>1249.4464908002</ele>
        <time>2019-09-29T09:24:27Z</time>
      </trkpt>
      <trkpt lat="45.56947" lon="2.8063">
        <ele>1249.2539250948</ele>
        <time>2019-09-29T09:24:37Z</time>
      </trkpt>
      <trkpt lat="45.56954" lon="2.80638">
        <ele>1249.1004176808</ele>
        <time>2019-09-29T09:24:46Z</time>
      </trkpt>
      <trkpt lat="45.56956" lon="2.80642">
        <ele>1248.8960048014</ele>
        <time>2019-09-29T09:24:55Z</time>
      </trkpt>
      <trkpt lat="45.56959" lon="2.80653">
        <ele>1248.4346553562</ele>
        <time>2019-09-29T09:25:05Z</time>
      </trkpt>
      <trkpt lat="45.56966" lon="2.80662">
        <ele>1247.8405708457</ele>
        <time>2019-09-29T09:25:15Z</time>
      </trkpt>
      <trkpt lat="45.56971" lon="2.80668">
        <ele>1247.3355409058</ele>
        <time>2019-09-29T09:25:24Z</time>
      </trkpt>
      <trkpt lat="45.56978" lon="2.80684">
        <ele>1246.7567915944</ele>
        <time>2019-09-29T09:25:33Z</time>
      </trkpt>
      <trkpt lat="45.56982" lon="2.80693">
        <ele>1246.0900513407</ele>
        <time>2019-09-29T09:25:43Z</time>
      </trkpt>
      <trkpt lat="45.56989" lon="2.80702">
        <ele>1245.4030800401</ele>
        <time>2019-09-29T09:25:52Z</time>
      </trkpt>
      <trkpt lat="45.56996" lon="2.80708">
        <ele>1244.8313482809</ele>
        <time>2019-09-29T09:26:01Z</time>
      </trkpt>
      <trkpt lat="45.57003" lon="2.80717">
        <ele>1244.166627558</ele>
        <time>2019-09-29T09:26:10Z</time>
      </trkpt>
      <trkpt lat="45.5701" lon="2.80735">
        <ele>1243.3093026978</ele>
        <time>2019-09-29T09:26:20Z</time>
      </trkpt>
      <trkpt lat="45.57015" lon="2.80749">
        <ele>1242.4908269461</ele>
        <time>2019-09-29T09:26:30Z</time>
      </trkpt>
      <trkpt lat="45.57023" lon="2.80761">
        <ele>1241.6767147618</ele>
        <time>2019-09-29T09:26:39Z</time>
      </trkpt>
      <trkpt lat="45.57027" lon="2.80768">
        <ele>1240.576228734</ele>
        <time>2019-09-29T09:26:48Z</time>
      </trkpt>
      <trkpt lat="45.57031" lon="2.80773">
        <ele>1239.2022003808</ele>
        <time>2019-09-29T09:26:57Z</time>
      </trkpt>
      <trkpt lat="45.57035" lon="2.80781">
        <ele>1237.7804522728</ele>
        <time>2019-09-29T09:27:06Z</time>
      </trkpt>
      <trkpt lat="45.57039" lon="2.80786">
        <ele>1236.3516485148</ele>
        <time>2019-09-29T09:27:15Z</time>
      </trkpt>
      <trkpt lat="45.57041" lon="2.80792">
        <ele>1234.6778055074</ele>
        <time>2019-09-29T09:27:24Z</time>
      </trkpt>
      <trkpt lat="45.57045" lon="2.80801">
        <ele>1232.8428189805</ele>
        <time>2019-09-29T09:27:33Z</time>
      </trkpt>
      <trkpt lat="45.5705" lon="2.80813">
        <ele>1230.7250169564</ele>
        <time>2019-09-29T09:27:43Z</time>
      </trkpt>
      <trkpt lat="45.57054" lon="2.8082">
        <ele>1228.9043057921</ele>
        <time>2019-09-29T09:27:52Z</time>
      </trkpt>
      <trkpt lat="45.5706" lon="2.80831">
        <ele>1227.1675829348</ele>
        <time>2019-09-29T09:28:02Z</time>
      </trkpt>
      <trkpt lat="45.57067" lon="2.80839">
        <ele>1225.095178271</ele>
        <time>2019-09-29T09:28:11Z</time>
      </trkpt>
      <trkpt lat="45.57073" lon="2.8085">
        <ele>1222.7629309492</ele>
        <time>2019-09-29T09:28:21Z</time>
      </trkpt>
      <trkpt lat="45.5708" lon="2.80859">
        <ele>1220.7293045678</ele>
        <time>2019-09-29T09:28:30Z</time>
      </trkpt>
      <trkpt lat="45.57087" lon="2.80871">
        <ele>1218.5349306872</ele>
        <time>2019-09-29T09:28:40Z</time>
      </trkpt>
      <trkpt lat="45.57091" lon="2.8088">
        <ele>1216.5131987755</ele>
        <time>2019-09-29T09:28:49Z</time>
      </trkpt>
      <trkpt lat="45.57096" lon="2.80891">
        <ele>1213.7620343284</ele>
        <time>2019-09-29T09:28:58Z</time>
      </trkpt>
      <trkpt lat="45.57099" lon="2.80902">
        <ele>1210.6845327109</ele>
        <time>2019-09-29T09:29:07Z</time>
      </trkpt>
      <trkpt lat="45.57104" lon="2.80908">
        <ele>1207.3968136776</ele>
        <time>2019-09-29T09:29:16Z</time>
      </trkpt>
      <trkpt lat="45.57111" lon="2.80911">
        <ele>1203.665385717</ele>
        <time>2019-09-29T09:29:25Z</time>
      </trkpt>
      <trkpt lat="45.5712" lon="2.80918">
        <ele>1199.5324639477</ele>
        <time>2019-09-29T09:29:35Z</time>
      </trkpt>
      <trkpt lat="45.57124" lon="2.80922">
        <ele>1195.1165929406</ele>
        <time>2019-09-29T09:29:44Z</time>
      </trkpt>
      <trkpt lat="45.57127" lon="2.80925">
        <ele>1190.0490630467</ele>
        <time>2019-09-29T09:29:53Z</time>
      </trkpt>
      <trkpt lat="45.57128" lon="2.80927">
        <ele>1184.8578256192</ele>
        <time>2019-09-29T09:30:02Z</time>
      </trkpt>
      <trkpt lat="45.57128" lon="2.80929">
        <ele>1181.4822199535</ele>
        <time>2019-09-29T09:30:11Z</time>
      </trkpt>
      <trkpt lat="45.57128" lon="2.80933">
        <ele>1175.5418397674</ele>
        <time>2019-09-29T09:30:21Z</time>
      </trkpt>
      <trkpt lat="45.57131" lon="2.80928">
        <ele>1171.3996065741</ele>
        <time>2019-09-29T09:30:30Z</time>
      </trkpt>
      <trkpt lat="45.57134" lon="2.8093">
        <ele>1166.2059048457</ele>
        <time>2019-09-29T09:30:40Z</time>
      </trkpt>
      <trkpt lat="45.57138" lon="2.80933">
        <ele>1160.8725064166</ele>
        <time>2019-09-29T09:30:49Z</time>
      </trkpt>
      <trkpt lat="45.57142" lon="2.80934">
        <ele>1154.896910369</ele>
        <time>2019-09-29T09:30:58Z</time>
      </trkpt>
      <trkpt lat="45.57142" lon="2.80924">
        <ele>1148.7422642129</ele>
        <time>2019-09-29T09:31:08Z</time>
      </trkpt>
      <trkpt lat="45.57143" lon="2.80925">
        <ele>1143.5211479546</ele>
        <time>2019-09-29T09:31:17Z</time>
      </trkpt>
      <trkpt lat="45.57148" lon="2.80919">
        <ele>1138.482956218</ele>
        <time>2019-09-29T09:31:26Z</time>
      </trkpt>
      <trkpt lat="45.57153" lon="2.80911">
        <ele>1134.1452535213</ele>
        <time>2019-09-29T09:31:35Z</time>
      </trkpt>
      <trkpt lat="45.57152" lon="2.80919">
        <ele>1130.0311822759</ele>
        <time>2019-09-29T09:31:45Z</time>
      </trkpt>
      <trkpt lat="45.57151" lon="2.8093">
        <ele>1126.8861795832</ele>
        <time>2019-09-29T09:31:54Z</time>
      </trkpt>
      <trkpt lat="45.57151" lon="2.80928">
        <ele>1125.3101286737</ele>
        <time>2019-09-29T09:32:03Z</time>
      </trkpt>
      <trkpt lat="45.57152" lon="2.80926">
        <ele>1122.9067748662</ele>
        <time>2019-09-29T09:32:13Z</time>
      </trkpt>
      <trkpt lat="45.57152" lon="2.80926">
        <ele>1121.8450556619</ele>
        <time>2019-09-29T09:32:23Z</time>
      </trkpt>
      <trkpt lat="45.5715" lon="2.80924">
        <ele>1120.5079058114</ele>
        <time>2019-09-29T09:32:32Z</time>
      </trkpt>
      <trkpt lat="45.57149" lon="2.80925">
        <ele>1119.0733027831</ele>
        <time>2019-09-29T09:32:48Z</time>
      </trkpt>
      <trkpt lat="45.57148" lon="2.80925">
        <ele>1117.1837496697</ele>
        <time>2019-09-29T09:33:08Z</time>
      </trkpt>
      <trkpt lat="45.57146" lon="2.80929">
        <ele>1114.0019075568</ele>
        <time>2019-09-29T09:33:18Z</time>
      </trkpt>
      <trkpt lat="45.57147" lon="2.8093">
        <ele>1112.2902365235</ele>
        <time>2019-09-29T09:33:27Z</time>
      </trkpt>
      <trkpt lat="45.57145" lon="2.80927">
        <ele>1111.3202189397</ele>
        <time>2019-09-29T09:33:37Z</time>
      </trkpt>
      <trkpt lat="45.57145" lon="2.80927">
        <ele>1110.7438641175</ele>
        <time>2019-09-29T09:33:39Z</time>
      </trkpt>
      <trkpt lat="45.57145" lon="2.80927">
        <ele>1110.7438641175</ele>
        <time>2019-09-29T09:33:40Z</time>
      </trkpt>
    </trkseg>
  </trk>
</gpx>